Observation data for Snyder SSW on 01/19/2019      Previous  Date  Next       Current Mesonet Observations  Soil Data  Daily Summary Page  Observations in Plain Language
KWT1 190600Z 33026G32KT 05/M03 A30 RMK A01 T00501025  RH  059%=      5-min Rain = 0
KWT1 190601Z 33022G30KT 05/M03 A30 RMK A01 T00491025  RH  059%=      5-min Rain = 0
KWT1 190602Z 33021G26KT 05/M03 A30 RMK A01 T00491025  RH  059%=      5-min Rain = 0
KWT1 190603Z 33027G33KT 05/M03 A30 RMK A01 T00491025  RH  059%=      5-min Rain = 0
KWT1 190604Z 32022G27KT 05/M03 A30 RMK A01 T00491025  RH  058%=      5-min Rain = 0
KWT1 190605Z 33029G39KT 05/M03 A30 RMK A01 T00491025  RH  059%=      5-min Rain = 0
KWT1 190606Z 33024G33KT 05/M03 A3001 RMK A01 T00491025  RH  059%=      5-min Rain = 0
KWT1 190607Z 34026G32KT 05/M03 A3001 RMK A01 T00491025  RH  059%=      5-min Rain = 0
KWT1 190608Z 34026G33KT 05/M03 A3001 RMK A01 T00491025  RH  059%=      5-min Rain = 0
KWT1 190609Z 34031G38KT 05/M03 A3001 RMK A01 T00491026  RH  059%=      5-min Rain = 0
KWT1 190610Z 34029G36KT 05/M03 A3001 RMK A01 T00481026  RH  059%=      5-min Rain = 0
KWT1 190611Z 34024G29KT 05/M03 A3001 RMK A01 T00481026  RH  059%=      5-min Rain = 0
KWT1 190612Z 34025G30KT 05/M03 A3001 RMK A01 T00481026  RH  059%=      5-min Rain = 0
KWT1 190613Z 34025G32KT 05/M03 A3001 RMK A01 T00481025  RH  059%=      5-min Rain = 0
KWT1 190614Z 34025G32KT 05/M03 A3001 RMK A01 T00481025  RH  059%=      5-min Rain = 0
KWT1 190615Z 34025G34KT 05/M03 A3001 RMK A01 T00481026  RH  059%=      5-min Rain = 0
KWT1 190616Z 34027G32KT 05/M03 A3001 RMK A01 T00481026  RH  059%=      5-min Rain = 0
KWT1 190617Z 34021G29KT 05/M03 A3001 RMK A01 T00481026  RH  059%=      5-min Rain = 0
KWT1 190618Z 34025G33KT 05/M03 A3001 RMK A01 T00481025  RH  059%=      5-min Rain = 0
KWT1 190619Z 34028KT 05/M03 A3001 RMK A01 T00481025  RH  059%=      5-min Rain = 0
KWT1 190620Z 34023G34KT 05/M03 A3002 RMK A01 T00481025  RH  059%=      5-min Rain = 0
KWT1 190621Z 34019G25KT 05/M02 A3002 RMK A01 T00481024  RH  060%=      5-min Rain = 0
KWT1 190622Z 33019G26KT 05/M02 A3002 RMK A01 T00481024  RH  060%=      5-min Rain = 0
KWT1 190623Z 34021G27KT 05/M02 A3002 RMK A01 T00481024  RH  060%=      5-min Rain = 0
KWT1 190624Z 34019G25KT 05/M02 A3002 RMK A01 T00481024  RH  060%=      5-min Rain = 0
KWT1 190625Z 33022KT 05/M02 A3002 RMK A01 T00481024  RH  060%=      5-min Rain = 0
KWT1 190626Z 33019G24KT 05/M02 A3002 RMK A01 T00481024  RH  060%=      5-min Rain = 0
KWT1 190627Z 34022G27KT 05/M02 A3002 RMK A01 T00481024  RH  060%=      5-min Rain = 0
KWT1 190628Z 34022G33KT 05/M02 A3002 RMK A01 T00481024  RH  060%=      5-min Rain = 0
KWT1 190629Z 34024G29KT 05/M02 A3002 RMK A01 T00481024  RH  060%=      5-min Rain = 0
KWT1 190630Z 33023KT 05/M02 A3002 RMK A01 T00481024  RH  060%=      5-min Rain = 0
KWT1 190631Z 34023KT 05/M02 A3002 RMK A01 T00481024  RH  060%=      5-min Rain = 0
KWT1 190632Z 33023G28KT 05/M02 A3002 RMK A01 T00481023  RH  060%=      5-min Rain = 0
KWT1 190633Z 33022G28KT 05/M02 A3002 RMK A01 T00481023  RH  060%=      5-min Rain = 0
KWT1 190634Z 34026KT 05/M02 A3003 RMK A01 T00481024  RH  060%=      5-min Rain = 0
KWT1 190635Z 33026KT 05/M02 A3002 RMK A01 T00481024  RH  060%=      5-min Rain = 0
KWT1 190636Z 33027G33KT 05/M02 A3002 RMK A01 T00471024  RH  060%=      5-min Rain = 0
KWT1 190637Z 34026G32KT 05/M02 A3003 RMK A01 T00471024  RH  060%=      5-min Rain = 0
KWT1 190638Z 33024G29KT 05/M02 A3003 RMK A01 T00461024  RH  060%=      5-min Rain = 0
KWT1 190639Z 33023G29KT 05/M02 A3003 RMK A01 T00461023  RH  061%=      5-min Rain = 0
KWT1 190640Z 33020KT 05/M02 A3003 RMK A01 T00461023  RH  061%=      5-min Rain = 0
KWT1 190641Z 33018KT 05/M02 A3003 RMK A01 T00461023  RH  061%=      5-min Rain = 0
KWT1 190642Z 33016G22KT 05/M02 A3003 RMK A01 T00461022  RH  061%=      5-min Rain = 0
KWT1 190643Z 33024G30KT 05/M02 A3003 RMK A01 T00461022  RH  061%=      5-min Rain = 0
KWT1 190644Z 34022G30KT 05/M02 A3003 RMK A01 T00451022  RH  062%=      5-min Rain = 0
KWT1 190645Z 34020G26KT 04/M02 A3003 RMK A01 T00441022  RH  062%=      5-min Rain = 0
KWT1 190646Z 34024G29KT 05/M02 A3003 RMK A01 T00451021  RH  062%=      5-min Rain = 0
KWT1 190647Z 33021KT 04/M02 A3003 RMK A01 T00441021  RH  062%=      5-min Rain = 0
KWT1 190648Z 34022G29KT 04/M02 A3004 RMK A01 T00441020  RH  063%=      5-min Rain = 0
KWT1 190649Z 34023KT 04/M02 A3004 RMK A01 T00441020  RH  063%=      5-min Rain = 0
KWT1 190650Z 34023G28KT 04/M02 A3004 RMK A01 T00431019  RH  064%=      5-min Rain = 0
KWT1 190651Z 34023KT 04/M02 A3004 RMK A01 T00431019  RH  064%=      5-min Rain = 0
KWT1 190652Z 33020KT 04/M02 A3004 RMK A01 T00431018  RH  065%=      5-min Rain = 0
KWT1 190653Z 33020G25KT 04/M02 A3004 RMK A01 T00431017  RH  065%=      5-min Rain = 0
KWT1 190654Z 33020G25KT 04/M02 A3004 RMK A01 T00411015  RH  067%=      5-min Rain = 0
KWT1 190655Z 32023KT 04/M01 A3004 RMK A01 T00391013  RH  069%=      5-min Rain = 0
KWT1 190656Z 32021G26KT 04/M01 A3004 RMK A01 T00361012  RH  071%=      5-min Rain = 0
KWT1 190657Z 32022G27KT 03/M01 A3004 RMK A01 T00341010  RH  073%=      5-min Rain = 0
KWT1 190658Z 32024KT 03/M01 A3004 RMK A01 T00321008  RH  075%=      5-min Rain = 0
KWT1 190659Z 32024G30KT 03/M01 A3004 RMK A01 T00311007  RH  076%=      5-min Rain = 0
KWT1 190700Z 33026G32KT 03/M01 A3004 RMK A01 T00301006  RH  077%=      5-min Rain = 0
KWT1 190701Z 33024G29KT 03/M01 A3005 RMK A01 T00291005  RH  078%=      5-min Rain = 0
KWT1 190702Z 33024G29KT 03/M01 A3005 RMK A01 T00281005  RH  079%=      5-min Rain = 0
KWT1 190703Z 32028KT 03/M00 A3005 RMK A01 T00271004  RH  080%=      5-min Rain = 0
KWT1 190704Z 33024G31KT 03/M00 A3005 RMK A01 T00261004  RH  081%=      5-min Rain = 0
KWT1 190705Z 33025G30KT 03/M00 A3005 RMK A01 T00251003  RH  082%=      5-min Rain = 0
KWT1 190706Z 32024KT 02/M00 A3005 RMK A01 T00241002  RH  083%=      5-min Rain = 0
KWT1 190707Z 33024G29KT 02/M00 A3005 RMK A01 T00231001  RH  084%=      5-min Rain = 0
KWT1 190708Z 32021G26KT 02/M00 A3005 RMK A01 T00221001  RH  085%=      5-min Rain = 0
KWT1 190709Z 32022G29KT 02/00 A3006 RMK A01 T002100-0  RH  086%=      5-min Rain = 0
KWT1 190710Z 33023KT 02/00 A3005 RMK A01 T00200001  RH  087%=      5-min Rain = 0
KWT1 190711Z 33024KT 02/00 A3006 RMK A01 T00190000  RH  088%=      5-min Rain = 0
KWT1 190712Z 32025KT 02/00 A3006 RMK A01 T00170000  RH  089%=      5-min Rain = 0
KWT1 190713Z 32022G28KT 02/00 A3006 RMK A01 T00160000  RH  090%=      5-min Rain = 0
KWT1 190714Z 33020KT 02/00 A3006 RMK A01 T00160002  RH  090%=      5-min Rain = 0
KWT1 190715Z 32020G25KT 02/00 A3006 RMK A01 T00150002  RH  091%=      5-min Rain = 0
KWT1 190716Z 32021G27KT 02/00 A3006 RMK A01 T00150002  RH  091%=      5-min Rain = 0
KWT1 190717Z 33019G29KT 02/00 A3006 RMK A01 T00150003  RH  092%=      5-min Rain = 0
KWT1 190718Z 32022KT 01/00 A3006 RMK A01 T00140002  RH  092%=      5-min Rain = 0
KWT1 190719Z 32021KT 01/00 A3006 RMK A01 T00140002  RH  092%=      5-min Rain = 0
KWT1 190720Z 33021G27KT 01/00 A3006 RMK A01 T00140002  RH  092%=      5-min Rain = 0
KWT1 190721Z 32018G23KT 01/00 A3006 RMK A01 T00140002  RH  092%=      5-min Rain = 0
KWT1 190722Z 33021G27KT 02/00 A3006 RMK A01 T00150003  RH  092%=      5-min Rain = 0
KWT1 190723Z 32020KT 01/00 A3006 RMK A01 T00140002  RH  092%=      5-min Rain = 0
KWT1 190724Z 32019G24KT 02/00 A3006 RMK A01 T00150003  RH  092%=      5-min Rain = 0
KWT1 190725Z 33016KT 02/00 A3006 RMK A01 T00150003  RH  092%=      5-min Rain = 0
KWT1 190726Z 32017G23KT 02/00 A3006 RMK A01 T00150003  RH  092%=      5-min Rain = 0
KWT1 190727Z 32017G24KT 02/00 A3006 RMK A01 T00150004  RH  092%=      5-min Rain = 0
KWT1 190728Z 32019KT 02/00 A3006 RMK A01 T00150004  RH  092%=      5-min Rain = 0
KWT1 190729Z 32016KT 02/00 A3006 RMK A01 T00160004  RH  092%=      5-min Rain = 0
KWT1 190730Z 33019KT 02/00 A3006 RMK A01 T00170004  RH  091%=      5-min Rain = 0
KWT1 190731Z 33020KT 02/00 A3006 RMK A01 T00170004  RH  091%=      5-min Rain = 0
KWT1 190732Z 33020G28KT 02/00 A3006 RMK A01 T00180004  RH  090%=      5-min Rain = 0
KWT1 190733Z 33023KT 02/00 A3006 RMK A01 T00180003  RH  090%=      5-min Rain = 0
KWT1 190734Z 33020KT 02/00 A3007 RMK A01 T00180002  RH  089%=      5-min Rain = 0
KWT1 190735Z 33020G26KT 02/00 A3007 RMK A01 T00180003  RH  090%=      5-min Rain = 0
KWT1 190736Z 32023KT 02/00 A3006 RMK A01 T00180003  RH  090%=      5-min Rain = 0
KWT1 190737Z 33023G29KT 02/00 A3007 RMK A01 T00180004  RH  090%=      5-min Rain = 0
KWT1 190738Z 33018KT 02/00 A3007 RMK A01 T00180003  RH  090%=      5-min Rain = 0
KWT1 190739Z 33019G24KT 02/00 A3007 RMK A01 T00180004  RH  090%=      5-min Rain = 0
KWT1 190740Z 33016KT 02/00 A3007 RMK A01 T00180004  RH  090%=      5-min Rain = 0
KWT1 190741Z 33021G27KT 02/00 A3007 RMK A01 T00170004  RH  091%=      5-min Rain = 0
KWT1 190742Z 33022G29KT 02/00 A3007 RMK A01 T00170003  RH  091%=      5-min Rain = 0
KWT1 190743Z 34023G29KT 02/00 A3007 RMK A01 T00170003  RH  091%=      5-min Rain = 0
KWT1 190744Z 34025G31KT 02/00 A3008 RMK A01 T00160002  RH  091%=      5-min Rain = 0
KWT1 190745Z 34024G31KT 02/00 A3008 RMK A01 T00150002  RH  091%=      5-min Rain = 0
KWT1 190746Z 34026G31KT 02/00 A3008 RMK A01 T00150002  RH  091%=      5-min Rain = 0
KWT1 190747Z 34020G25KT 01/00 A3008 RMK A01 T00140001  RH  091%=      5-min Rain = 0
KWT1 190748Z 34020KT 01/00 A3008 RMK A01 T00140002  RH  091%=      5-min Rain = 0
KWT1 190749Z 34022KT 01/00 A3008 RMK A01 T00140002  RH  092%=      5-min Rain = 0
KWT1 190750Z 34022KT 01/00 A3008 RMK A01 T00140002  RH  092%=      5-min Rain = 0
KWT1 190751Z 34019KT 01/00 A3009 RMK A01 T00130001  RH  092%=      5-min Rain = 0
KWT1 190752Z 34020KT 01/00 A3009 RMK A01 T00130002  RH  092%=      5-min Rain = 0
KWT1 190753Z 34020G25KT 01/00 A3009 RMK A01 T00120002  RH  093%=      5-min Rain = 0
KWT1 190754Z 34018KT 01/00 A3009 RMK A01 T00120002  RH  093%=      5-min Rain = 0
KWT1 190755Z 34020KT 01/00 A3009 RMK A01 T00120002  RH  093%=      5-min Rain = 0
KWT1 190756Z 33016KT 01/00 A3009 RMK A01 T00110002  RH  094%=      5-min Rain = 0
KWT1 190757Z 34018KT 01/00 A301 RMK A01 T00120003  RH  094%=      5-min Rain = 0
KWT1 190758Z 34013KT 01/00 A301 RMK A01 T00110003  RH  094%=      5-min Rain = 0
KWT1 190759Z 33015G20KT 01/00 A301 RMK A01 T00110004  RH  095%=      5-min Rain = 0
KWT1 190800Z 34015KT 01/00 A301 RMK A01 T00110004  RH  095%=      5-min Rain = 0
KWT1 190801Z 34016KT 01/00 A301 RMK A01 T00110004  RH  095%=      5-min Rain = 0
KWT1 190802Z 34014G19KT 01/00 A301 RMK A01 T00110004  RH  095%=      5-min Rain = 0
KWT1 190803Z 34013KT 01/00 A301 RMK A01 T00110004  RH  095%=      5-min Rain = 0
KWT1 190804Z 34013KT 01/00 A301 RMK A01 T00110004  RH  095%=      5-min Rain = 0
KWT1 190805Z 34014KT 01/00 A301 RMK A01 T00110004  RH  095%=      5-min Rain = 0
KWT1 190806Z 33013KT 01/00 A301 RMK A01 T00110004  RH  095%=      5-min Rain = 0
KWT1 190807Z 33012KT 01/00 A301 RMK A01 T00120004  RH  095%=      5-min Rain = 0
KWT1 190808Z 34012KT 01/00 A3011 RMK A01 T00110004  RH  094%=      5-min Rain = 0
KWT1 190809Z 33012KT 01/00 A3011 RMK A01 T00120004  RH  094%=      5-min Rain = 0
KWT1 190810Z 34011KT 01/00 A3011 RMK A01 T00120004  RH  094%=      5-min Rain = 0
KWT1 190811Z 33015KT 01/00 A3011 RMK A01 T00120003  RH  094%=      5-min Rain = 0
KWT1 190812Z 33012KT 01/00 A3011 RMK A01 T00130003  RH  093%=      5-min Rain = 0
KWT1 190813Z 33013G19KT 01/00 A3011 RMK A01 T00130003  RH  093%=      5-min Rain = 0
KWT1 190814Z 34013KT 01/00 A3011 RMK A01 T00130002  RH  092%=      5-min Rain = 0
KWT1 190815Z 34015KT 01/00 A3011 RMK A01 T00130002  RH  092%=      5-min Rain = 0
KWT1 190816Z 33017KT 01/00 A3011 RMK A01 T00140001  RH  091%=      5-min Rain = 0
KWT1 190817Z 34014KT 01/00 A3011 RMK A01 T00140001  RH  091%=      5-min Rain = 0
KWT1 190818Z 34014G19KT 01/00 A3011 RMK A01 T00140001  RH  090%=      5-min Rain = 0
KWT1 190819Z 34013KT 01/00 A3011 RMK A01 T001400-0  RH  090%=      5-min Rain = 0
KWT1 190820Z 34014KT 01/00 A3011 RMK A01 T001400-0  RH  090%=      5-min Rain = 0
KWT1 190821Z 34013KT 01/00 A3011 RMK A01 T00140000  RH  090%=      5-min Rain = 0
KWT1 190822Z 34009KT 02/00 A3011 RMK A01 T00150000  RH  090%=      5-min Rain = 0
KWT1 190823Z 34010KT 02/00 A3011 RMK A01 T00150001  RH  091%=      5-min Rain = 0
KWT1 190824Z 34009KT 02/00 A3011 RMK A01 T00150001  RH  091%=      5-min Rain = 0
KWT1 190825Z 33010G15KT 02/00 A3011 RMK A01 T00150001  RH  091%=      5-min Rain = 0
KWT1 190826Z 34009KT 02/00 A3011 RMK A01 T00150001  RH  090%=      5-min Rain = 0
KWT1 190827Z 33009KT 02/00 A3011 RMK A01 T00160001  RH  090%=      5-min Rain = 0
KWT1 190828Z 34010KT 02/00 A3011 RMK A01 T00160002  RH  090%=      5-min Rain = 0
KWT1 190829Z 33013G18KT 02/00 A3011 RMK A01 T00160001  RH  090%=      5-min Rain = 0
KWT1 190830Z 33011KT 02/00 A3011 RMK A01 T001600-0  RH  089%=      5-min Rain = 0
KWT1 190831Z 34010KT 02/00 A3011 RMK A01 T001700-0  RH  089%=      5-min Rain = 0
KWT1 190832Z 33009KT 02/M00 A3011 RMK A01 T00171001  RH  088%=      5-min Rain = 0
KWT1 190833Z 33009KT 02/M00 A3011 RMK A01 T00161001  RH  088%=      5-min Rain = 0
KWT1 190834Z 33009KT 02/00 A3011 RMK A01 T001700-0  RH  089%=      5-min Rain = 0
KWT1 190835Z 33009KT 02/00 A3011 RMK A01 T00170000  RH  089%=      5-min Rain = 0
KWT1 190836Z 33010KT 02/00 A3011 RMK A01 T00170001  RH  089%=      5-min Rain = 0
KWT1 190837Z 32013KT 02/00 A3011 RMK A01 T00180000  RH  088%=      5-min Rain = 0
KWT1 190838Z 32014KT 02/M00 A3011 RMK A01 T00171001  RH  087%=      5-min Rain = 0
KWT1 190839Z 32013KT 02/M00 A3011 RMK A01 T00181002  RH  087%=      5-min Rain = 0
KWT1 190840Z 33013KT 02/M00 A3011 RMK A01 T00181003  RH  086%=      5-min Rain = 0
KWT1 190841Z 32010KT 02/M00 A3011 RMK A01 T00181003  RH  086%=      5-min Rain = 0
KWT1 190842Z 32010KT 02/M00 A3011 RMK A01 T00181002  RH  087%=      5-min Rain = 0
KWT1 190843Z 32010KT 02/M00 A3011 RMK A01 T00181001  RH  087%=      5-min Rain = 0
KWT1 190844Z 32009KT 02/00 A3011 RMK A01 T001800-0  RH  088%=      5-min Rain = 0
KWT1 190845Z 32009KT 02/00 A3011 RMK A01 T00180000  RH  088%=      5-min Rain = 0
KWT1 190846Z 32009KT 02/00 A3011 RMK A01 T00180001  RH  088%=      5-min Rain = 0
KWT1 190847Z 31008KT 02/00 A3011 RMK A01 T00180001  RH  089%=      5-min Rain = 0
KWT1 190848Z 31009KT 02/00 A3011 RMK A01 T00180002  RH  089%=      5-min Rain = 0
KWT1 190849Z 32009KT 02/00 A3012 RMK A01 T00180002  RH  089%=      5-min Rain = 0
KWT1 190850Z 32010KT 02/00 A3012 RMK A01 T00180002  RH  089%=      5-min Rain = 0
KWT1 190851Z 31008KT 02/00 A3012 RMK A01 T00180002  RH  089%=      5-min Rain = 0
KWT1 190852Z 31009KT 02/00 A3012 RMK A01 T00180002  RH  089%=      5-min Rain = 0
KWT1 190853Z 32009KT 02/00 A3012 RMK A01 T00180003  RH  090%=      5-min Rain = 0
KWT1 190854Z 31013KT 02/00 A3012 RMK A01 T00180002  RH  089%=      5-min Rain = 0
KWT1 190855Z 32012KT 02/00 A3011 RMK A01 T00190002  RH  088%=      5-min Rain = 0
KWT1 190856Z 32010KT 02/00 A3012 RMK A01 T00200002  RH  088%=      5-min Rain = 0
KWT1 190857Z 32010KT 02/00 A3012 RMK A01 T00200002  RH  088%=      5-min Rain = 0
KWT1 190858Z 32010KT 02/00 A3012 RMK A01 T00200002  RH  088%=      5-min Rain = 0
KWT1 190859Z 32011KT 02/00 A3012 RMK A01 T00210003  RH  088%=      5-min Rain = 0
KWT1 190900Z 32011KT 02/00 A3012 RMK A01 T00210003  RH  088%=      5-min Rain = 0
KWT1 190901Z 32011KT 02/00 A3012 RMK A01 T00210002  RH  087%=      5-min Rain = 0
KWT1 190902Z 32012KT 02/00 A3012 RMK A01 T00220002  RH  087%=      5-min Rain = 0
KWT1 190903Z 32013KT 02/00 A3012 RMK A01 T00220001  RH  086%=      5-min Rain = 0
KWT1 190904Z 32012KT 02/00 A3012 RMK A01 T00230001  RH  085%=      5-min Rain = 0
KWT1 190905Z 32012KT 02/00 A3012 RMK A01 T00230000  RH  085%=      5-min Rain = 0
KWT1 190906Z 32014KT 02/00 A3012 RMK A01 T00230000  RH  085%=      5-min Rain = 0
KWT1 190907Z 32012KT 02/00 A3012 RMK A01 T002300-0  RH  084%=      5-min Rain = 0
KWT1 190908Z 32014KT 02/M00 A3012 RMK A01 T00231001  RH  084%=      5-min Rain = 0
KWT1 190909Z 32015KT 02/M00 A3012 RMK A01 T00241002  RH  083%=      5-min Rain = 0
KWT1 190910Z 32013KT 02/M00 A3012 RMK A01 T00241002  RH  083%=      5-min Rain = 0
KWT1 190911Z 32013KT 02/M00 A3012 RMK A01 T00241001  RH  084%=      5-min Rain = 0
KWT1 190912Z 32015KT 02/M00 A3012 RMK A01 T00241001  RH  084%=      5-min Rain = 0
KWT1 190913Z 32015KT 03/M00 A3012 RMK A01 T00251002  RH  083%=      5-min Rain = 0
KWT1 190914Z 32014KT 02/M00 A3012 RMK A01 T00241003  RH  082%=      5-min Rain = 0
KWT1 190915Z 32013KT 02/M00 A3012 RMK A01 T00241002  RH  083%=      5-min Rain = 0
KWT1 190916Z 32014KT 03/M00 A3012 RMK A01 T00251001  RH  083%=      5-min Rain = 0
KWT1 190917Z 32014KT 02/M00 A3011 RMK A01 T00241002  RH  083%=      5-min Rain = 0
KWT1 190918Z 32015KT 03/M00 A3011 RMK A01 T00251002  RH  083%=      5-min Rain = 0
KWT1 190919Z 32014KT 02/M00 A3011 RMK A01 T00241002  RH  083%=      5-min Rain = 0
KWT1 190920Z 32014KT 02/M00 A3011 RMK A01 T00241002  RH  083%=      5-min Rain = 0
KWT1 190921Z 32013KT 02/M00 A3012 RMK A01 T00241002  RH  083%=      5-min Rain = 0
KWT1 190922Z 32015KT 02/M00 A3012 RMK A01 T00241002  RH  083%=      5-min Rain = 0
KWT1 190923Z 32016KT 02/M00 A3011 RMK A01 T00241003  RH  082%=      5-min Rain = 0
KWT1 190924Z 33014KT 02/M00 A3012 RMK A01 T00241003  RH  082%=      5-min Rain = 0
KWT1 190925Z 32015KT 03/M00 A3011 RMK A01 T00251003  RH  082%=      5-min Rain = 0
KWT1 190926Z 32011KT 03/M00 A3012 RMK A01 T00251004  RH  082%=      5-min Rain = 0
KWT1 190927Z 32012KT 03/M00 A3012 RMK A01 T00251002  RH  083%=      5-min Rain = 0
KWT1 190928Z 32015KT 02/M00 A3012 RMK A01 T00241001  RH  083%=      5-min Rain = 0
KWT1 190929Z 32013KT 02/M00 A3012 RMK A01 T00241002  RH  083%=      5-min Rain = 0
KWT1 190930Z 32010KT 03/M00 A3012 RMK A01 T00251001  RH  083%=      5-min Rain = 0
KWT1 190931Z 31012KT 02/00 A3012 RMK A01 T002400-0  RH  084%=      5-min Rain = 0
KWT1 190932Z 32010KT 02/M00 A3012 RMK A01 T00241001  RH  084%=      5-min Rain = 0
KWT1 190933Z 32011KT 02/00 A3012 RMK A01 T002400-0  RH  084%=      5-min Rain = 0
KWT1 190934Z 32011KT 02/M00 A3012 RMK A01 T00241001  RH  084%=      5-min Rain = 0
KWT1 190935Z 32010KT 02/M00 A3012 RMK A01 T00241001  RH  084%=      5-min Rain = 0
KWT1 190936Z 32012KT 02/00 A3012 RMK A01 T002400-0  RH  084%=      5-min Rain = 0
KWT1 190937Z 32010KT 02/00 A3012 RMK A01 T002400-0  RH  084%=      5-min Rain = 0
KWT1 190938Z 32009KT 02/00 A3012 RMK A01 T00240000  RH  084%=      5-min Rain = 0
KWT1 190939Z 31011KT 02/00 A3012 RMK A01 T00240000  RH  085%=      5-min Rain = 0
KWT1 190940Z 32011KT 02/M00 A3012 RMK A01 T00231001  RH  084%=      5-min Rain = 0
KWT1 190941Z 32010KT 02/00 A3012 RMK A01 T002300-0  RH  084%=      5-min Rain = 0
KWT1 190942Z 31008KT 02/00 A3012 RMK A01 T002300-0  RH  084%=      5-min Rain = 0
KWT1 190943Z 31009KT 02/00 A3012 RMK A01 T00230000  RH  085%=      5-min Rain = 0
KWT1 190944Z 31011KT 02/00 A3012 RMK A01 T00230000  RH  085%=      5-min Rain = 0
KWT1 190945Z 32011KT 02/M00 A3012 RMK A01 T00231001  RH  084%=      5-min Rain = 0
KWT1 190946Z 31009KT 02/M00 A3012 RMK A01 T00231001  RH  084%=      5-min Rain = 0
KWT1 190947Z 31011KT 02/M00 A3012 RMK A01 T00231001  RH  084%=      5-min Rain = 0
KWT1 190948Z 31010KT 02/M00 A3012 RMK A01 T00231001  RH  084%=      5-min Rain = 0
KWT1 190949Z 32012KT 02/M00 A3012 RMK A01 T00241001  RH  084%=      5-min Rain = 0
KWT1 190950Z 31013KT 02/M00 A3012 RMK A01 T00241002  RH  083%=      5-min Rain = 0
KWT1 190951Z 31012KT 03/M00 A3012 RMK A01 T00251002  RH  083%=      5-min Rain = 0
KWT1 190952Z 31009KT 03/M00 A3013 RMK A01 T00251002  RH  082%=      5-min Rain = 0
KWT1 190953Z 31010KT 03/M00 A3013 RMK A01 T00251002  RH  083%=      5-min Rain = 0
KWT1 190954Z 31014KT 02/M00 A3013 RMK A01 T00241002  RH  082%=      5-min Rain = 0
KWT1 190955Z 31013KT 03/M00 A3013 RMK A01 T00251004  RH  081%=      5-min Rain = 0
KWT1 190956Z 32013KT 03/M00 A3013 RMK A01 T00251004  RH  081%=      5-min Rain = 0
KWT1 190957Z 31010KT 03/M01 A3013 RMK A01 T00251005  RH  081%=      5-min Rain = 0
KWT1 190958Z 32011KT 03/M00 A3013 RMK A01 T00251004  RH  081%=      5-min Rain = 0
KWT1 190959Z 32012KT 03/M01 A3013 RMK A01 T00251005  RH  081%=      5-min Rain = 0
KWT1 191000Z 32010KT 03/M01 A3013 RMK A01 T00251005  RH  081%=      5-min Rain = 0
KWT1 191001Z 32012KT 02/M01 A3013 RMK A01 T00241005  RH  081%=      5-min Rain = 0
KWT1 191002Z 32013KT 02/M01 A3013 RMK A01 T00241005  RH  081%=      5-min Rain = 0
KWT1 191003Z 33015KT 02/M01 A3013 RMK A01 T00241007  RH  080%=      5-min Rain = 0
KWT1 191004Z 32014KT 03/M01 A3013 RMK A01 T00251008  RH  079%=      5-min Rain = 0
KWT1 191005Z 32016KT 03/M01 A3013 RMK A01 T00251009  RH  079%=      5-min Rain = 0
KWT1 191006Z 32016KT 03/M01 A3013 RMK A01 T00251009  RH  078%=      5-min Rain = 0
KWT1 191007Z 32013G18KT 03/M01 A3013 RMK A01 T00251010  RH  078%=      5-min Rain = 0
KWT1 191008Z 32013KT 03/M01 A3013 RMK A01 T00251010  RH  078%=      5-min Rain = 0
KWT1 191009Z 32013KT 03/M01 A3013 RMK A01 T00251010  RH  078%=      5-min Rain = 0
KWT1 191010Z 32014G20KT 02/M01 A3013 RMK A01 T00241010  RH  078%=      5-min Rain = 0
KWT1 191011Z 33016KT 02/M01 A3013 RMK A01 T00241010  RH  078%=      5-min Rain = 0
KWT1 191012Z 33014KT 03/M01 A3013 RMK A01 T00251011  RH  077%=      5-min Rain = 0
KWT1 191013Z 32014KT 02/M01 A3013 RMK A01 T00241011  RH  077%=      5-min Rain = 0
KWT1 191014Z 33014KT 02/M01 A3013 RMK A01 T00241012  RH  077%=      5-min Rain = 0
KWT1 191015Z 32015KT 02/M01 A3013 RMK A01 T00231012  RH  077%=      5-min Rain = 0
KWT1 191016Z 32012KT 02/M01 A3013 RMK A01 T00231012  RH  077%=      5-min Rain = 0
KWT1 191017Z 32012KT 02/M01 A3013 RMK A01 T00231012  RH  078%=      5-min Rain = 0
KWT1 191018Z 32011KT 02/M01 A3013 RMK A01 T00231012  RH  078%=      5-min Rain = 0
KWT1 191019Z 32011KT 02/M01 A3013 RMK A01 T00231012  RH  078%=      5-min Rain = 0
KWT1 191020Z 32011KT 02/M01 A3013 RMK A01 T00221012  RH  078%=      5-min Rain = 0
KWT1 191021Z 32011KT 02/M01 A3013 RMK A01 T00211012  RH  079%=      5-min Rain = 0
KWT1 191022Z 32011KT 02/M01 A3013 RMK A01 T00201012  RH  079%=      5-min Rain = 0
KWT1 191023Z 32014KT 02/M01 A3013 RMK A01 T00201013  RH  079%=      5-min Rain = 0
KWT1 191024Z 32012KT 02/M01 A3013 RMK A01 T00211013  RH  078%=      5-min Rain = 0
KWT1 191025Z 32015KT 02/M01 A3014 RMK A01 T00211014  RH  078%=      5-min Rain = 0
KWT1 191026Z 32011KT 02/M01 A3014 RMK A01 T00211014  RH  078%=      5-min Rain = 0
KWT1 191027Z 31013G19KT 02/M01 A3014 RMK A01 T00201014  RH  078%=      5-min Rain = 0
KWT1 191028Z 32016KT 02/M01 A3014 RMK A01 T00201014  RH  078%=      5-min Rain = 0
KWT1 191029Z 32012KT 02/M02 A3014 RMK A01 T00211015  RH  077%=      5-min Rain = 0
KWT1 191030Z 32011KT 02/M02 A3014 RMK A01 T00201015  RH  078%=      5-min Rain = 0
KWT1 191031Z 32013KT 02/M02 A3014 RMK A01 T00191015  RH  078%=      5-min Rain = 0
KWT1 191032Z 31011KT 02/M02 A3014 RMK A01 T00191016  RH  078%=      5-min Rain = 0
KWT1 191033Z 31014KT 02/M02 A3014 RMK A01 T00191015  RH  078%=      5-min Rain = 0
KWT1 191034Z 32016KT 02/M02 A3014 RMK A01 T00191017  RH  077%=      5-min Rain = 0
KWT1 191035Z 32013KT 02/M02 A3014 RMK A01 T00201017  RH  077%=      5-min Rain = 0
KWT1 191036Z 31014KT 02/M02 A3014 RMK A01 T00201017  RH  076%=      5-min Rain = 0
KWT1 191037Z 32017KT 02/M02 A3014 RMK A01 T00201018  RH  076%=      5-min Rain = 0
KWT1 191038Z 31013KT 02/M02 A3014 RMK A01 T00201018  RH  076%=      5-min Rain = 0
KWT1 191039Z 32015KT 02/M02 A3014 RMK A01 T00201018  RH  076%=      5-min Rain = 0
KWT1 191040Z 31014KT 02/M02 A3014 RMK A01 T00201019  RH  075%=      5-min Rain = 0
KWT1 191041Z 32013KT 02/M02 A3014 RMK A01 T00201019  RH  076%=      5-min Rain = 0
KWT1 191042Z 31014G19KT 02/M02 A3014 RMK A01 T00191019  RH  076%=      5-min Rain = 0
KWT1 191043Z 32015KT 02/M02 A3014 RMK A01 T00181019  RH  076%=      5-min Rain = 0
KWT1 191044Z 32013G18KT 02/M02 A3014 RMK A01 T00181020  RH  076%=      5-min Rain = 0
KWT1 191045Z 32013KT 02/M02 A3014 RMK A01 T00181020  RH  076%=      5-min Rain = 0
KWT1 191046Z 32015KT 02/M02 A3014 RMK A01 T00181021  RH  075%=      5-min Rain = 0
KWT1 191047Z 32016KT 02/M02 A3014 RMK A01 T00181021  RH  075%=      5-min Rain = 0
KWT1 191048Z 32015KT 02/M02 A3014 RMK A01 T00181021  RH  075%=      5-min Rain = 0
KWT1 191049Z 32016KT 02/M02 A3015 RMK A01 T00181022  RH  075%=      5-min Rain = 0
KWT1 191050Z 32014KT 02/M02 A3015 RMK A01 T00191022  RH  074%=      5-min Rain = 0
KWT1 191051Z 32017KT 02/M02 A3015 RMK A01 T00181022  RH  074%=      5-min Rain = 0
KWT1 191052Z 32016G21KT 02/M02 A3015 RMK A01 T00181023  RH  074%=      5-min Rain = 0
KWT1 191053Z 32017KT 02/M02 A3015 RMK A01 T00181023  RH  074%=      5-min Rain = 0
KWT1 191054Z 32017KT 02/M02 A3015 RMK A01 T00181023  RH  074%=      5-min Rain = 0
KWT1 191055Z 33016G21KT 02/M02 A3015 RMK A01 T00181024  RH  074%=      5-min Rain = 0
KWT1 191056Z 32017KT 02/M02 A3015 RMK A01 T00181023  RH  074%=      5-min Rain = 0
KWT1 191057Z 32017G24KT 02/M02 A3015 RMK A01 T00171024  RH  074%=      5-min Rain = 0
KWT1 191058Z 33016G23KT 02/M03 A3015 RMK A01 T00171025  RH  074%=      5-min Rain = 0
KWT1 191059Z 32019KT 02/M02 A3015 RMK A01 T00181024  RH  074%=      5-min Rain = 0
KWT1 191100Z 33018KT 02/M03 A3015 RMK A01 T00171025  RH  073%=      5-min Rain = 0
KWT1 191101Z 32015KT 02/M03 A3015 RMK A01 T00171025  RH  073%=      5-min Rain = 0
KWT1 191102Z 32016KT 02/M03 A3015 RMK A01 T00171025  RH  073%=      5-min Rain = 0
KWT1 191103Z 33017KT 02/M03 A3016 RMK A01 T00171026  RH  073%=      5-min Rain = 0
KWT1 191104Z 33015KT 02/M03 A3016 RMK A01 T00171025  RH  073%=      5-min Rain = 0
KWT1 191105Z 33014KT 02/M03 A3016 RMK A01 T00171026  RH  073%=      5-min Rain = 0
KWT1 191106Z 33015KT 02/M03 A3016 RMK A01 T00161026  RH  073%=      5-min Rain = 0
KWT1 191107Z 33015KT 02/M03 A3016 RMK A01 T00161027  RH  073%=      5-min Rain = 0
KWT1 191108Z 33014KT 02/M03 A3016 RMK A01 T00171026  RH  073%=      5-min Rain = 0
KWT1 191109Z 33013G19KT 02/M03 A3016 RMK A01 T00171026  RH  073%=      5-min Rain = 0
KWT1 191110Z 33012G17KT 02/M03 A3016 RMK A01 T00161026  RH  073%=      5-min Rain = 0
KWT1 191111Z 33013KT 02/M03 A3016 RMK A01 T00161026  RH  074%=      5-min Rain = 0
KWT1 191112Z 32014KT 02/M03 A3016 RMK A01 T00151026  RH  074%=      5-min Rain = 0
KWT1 191113Z 33013KT 02/M03 A3016 RMK A01 T00151026  RH  074%=      5-min Rain = 0
KWT1 191114Z 32015KT 02/M03 A3016 RMK A01 T00151026  RH  074%=      5-min Rain = 0
KWT1 191115Z 33015KT 02/M03 A3016 RMK A01 T00151026  RH  074%=      5-min Rain = 0
KWT1 191116Z 33013KT 02/M03 A3017 RMK A01 T00151027  RH  074%=      5-min Rain = 0
KWT1 191117Z 33011KT 02/M03 A3017 RMK A01 T00151026  RH  074%=      5-min Rain = 0
KWT1 191118Z 32015KT 01/M03 A3017 RMK A01 T00141027  RH  074%=      5-min Rain = 0
KWT1 191119Z 33015KT 01/M03 A3017 RMK A01 T00141027  RH  074%=      5-min Rain = 0
KWT1 191120Z 33014KT 02/M03 A3017 RMK A01 T00151027  RH  074%=      5-min Rain = 0
KWT1 191121Z 33013G20KT 02/M03 A3017 RMK A01 T00151028  RH  073%=      5-min Rain = 0
KWT1 191122Z 32015KT 02/M03 A3017 RMK A01 T00151028  RH  073%=      5-min Rain = 0
KWT1 191123Z 33012KT 02/M03 A3017 RMK A01 T00151028  RH  073%=      5-min Rain = 0
KWT1 191124Z 33018G23KT 01/M03 A3017 RMK A01 T00141029  RH  073%=      5-min Rain = 0
KWT1 191125Z 33019KT 02/M03 A3017 RMK A01 T00151029  RH  072%=      5-min Rain = 0
KWT1 191126Z 33017G23KT 02/M03 A3017 RMK A01 T00151030  RH  072%=      5-min Rain = 0
KWT1 191127Z 33017KT 02/M03 A3016 RMK A01 T00151030  RH  072%=      5-min Rain = 0
KWT1 191128Z 33016G21KT 02/M03 A3016 RMK A01 T00151031  RH  071%=      5-min Rain = 0
KWT1 191129Z 34013G19KT 02/M03 A3017 RMK A01 T00161031  RH  071%=      5-min Rain = 0
KWT1 191130Z 34011KT 02/M03 A3017 RMK A01 T00151030  RH  072%=      5-min Rain = 0
KWT1 191131Z 33012KT 01/M03 A3017 RMK A01 T00131030  RH  073%=      5-min Rain = 0
KWT1 191132Z 33015KT 01/M03 A3017 RMK A01 T00131030  RH  073%=      5-min Rain = 0
KWT1 191133Z 33013KT 01/M03 A3017 RMK A01 T00141030  RH  073%=      5-min Rain = 0
KWT1 191134Z 33014G19KT 01/M03 A3017 RMK A01 T00141030  RH  073%=      5-min Rain = 0
KWT1 191135Z 33014KT 01/M03 A3017 RMK A01 T00141030  RH  073%=      5-min Rain = 0
KWT1 191136Z 32016G24KT 01/M03 A3017 RMK A01 T00141030  RH  073%=      5-min Rain = 0
KWT1 191137Z 33017G22KT 01/M03 A3017 RMK A01 T00141030  RH  072%=      5-min Rain = 0
KWT1 191138Z 32020KT 01/M03 A3017 RMK A01 T00141031  RH  072%=      5-min Rain = 0
KWT1 191139Z 33018G23KT 02/M03 A3017 RMK A01 T00151031  RH  072%=      5-min Rain = 0
KWT1 191140Z 33013KT 01/M03 A3017 RMK A01 T00141031  RH  072%=      5-min Rain = 0
KWT1 191141Z 33014KT 01/M03 A3017 RMK A01 T00141031  RH  072%=      5-min Rain = 0
KWT1 191142Z 33016KT 01/M03 A3017 RMK A01 T00131031  RH  072%=      5-min Rain = 0
KWT1 191143Z 33018G24KT 01/M03 A3017 RMK A01 T00141031  RH  072%=      5-min Rain = 0
KWT1 191144Z 33017KT 01/M03 A3017 RMK A01 T00141032  RH  072%=      5-min Rain = 0
KWT1 191145Z 33016G22KT 01/M03 A3018 RMK A01 T00141032  RH  072%=      5-min Rain = 0
KWT1 191146Z 33016KT 01/M03 A3018 RMK A01 T00141031  RH  072%=      5-min Rain = 0
KWT1 191147Z 33014KT 01/M03 A3018 RMK A01 T00141031  RH  072%=      5-min Rain = 0
KWT1 191148Z 33013KT 01/M03 A3018 RMK A01 T00141031  RH  072%=      5-min Rain = 0
KWT1 191149Z 33012KT 01/M03 A3018 RMK A01 T00131031  RH  073%=      5-min Rain = 0
KWT1 191150Z 33015KT 01/M03 A3018 RMK A01 T00121031  RH  073%=      5-min Rain = 0
KWT1 191151Z 33017G22KT 01/M03 A3018 RMK A01 T00121031  RH  073%=      5-min Rain = 0
KWT1 191152Z 34017KT 01/M03 A3018 RMK A01 T00121032  RH  073%=      5-min Rain = 0
KWT1 191153Z 33014G19KT 01/M03 A3018 RMK A01 T00121031  RH  073%=      5-min Rain = 0
KWT1 191154Z 33018G23KT 01/M03 A3018 RMK A01 T00121032  RH  073%=      5-min Rain = 0
KWT1 191155Z 33015KT 01/M03 A3018 RMK A01 T00121032  RH  072%=      5-min Rain = 0
KWT1 191156Z 33016G21KT 01/M03 A3018 RMK A01 T00121032  RH  072%=      5-min Rain = 0
KWT1 191157Z 33017KT 01/M03 A3018 RMK A01 T00121032  RH  072%=      5-min Rain = 0
KWT1 191158Z 34020KT 01/M03 A3018 RMK A01 T00121032  RH  072%=      5-min Rain = 0
KWT1 191159Z 34019G26KT 01/M03 A3018 RMK A01 T00131033  RH  072%=      5-min Rain = 0
KWT1 191200Z 34021KT 01/M03 A3018 RMK A01 T00131033  RH  071%=      5-min Rain = 0
KWT1 191201Z 33020KT 01/M03 A3018 RMK A01 T00141033  RH  071%=      5-min Rain = 0
KWT1 191202Z 33020G25KT 01/M03 A3018 RMK A01 T00141033  RH  071%=      5-min Rain = 0
KWT1 191203Z 34019G26KT 01/M03 A3018 RMK A01 T00131033  RH  071%=      5-min Rain = 0
KWT1 191204Z 34020G26KT 01/M03 A3018 RMK A01 T00131034  RH  071%=      5-min Rain = 0
KWT1 191205Z 34019G24KT 01/M03 A3018 RMK A01 T00131034  RH  071%=      5-min Rain = 0
KWT1 191206Z 34017KT 01/M03 A3019 RMK A01 T00131034  RH  071%=      5-min Rain = 0
KWT1 191207Z 34020KT 01/M03 A3019 RMK A01 T00121033  RH  071%=      5-min Rain = 0
KWT1 191208Z 34021G26KT 01/M03 A3019 RMK A01 T00121034  RH  071%=      5-min Rain = 0
KWT1 191209Z 33018KT 01/M03 A3019 RMK A01 T00131034  RH  071%=      5-min Rain = 0
KWT1 191210Z 34015KT 01/M03 A3019 RMK A01 T00131034  RH  071%=      5-min Rain = 0
KWT1 191211Z 34017KT 01/M03 A3019 RMK A01 T00121034  RH  071%=      5-min Rain = 0
KWT1 191212Z 34020KT 01/M03 A3019 RMK A01 T00121034  RH  072%=      5-min Rain = 0
KWT1 191213Z 34018G23KT 01/M03 A3019 RMK A01 T00121034  RH  072%=      5-min Rain = 0
KWT1 191214Z 34017G22KT 01/M03 A3019 RMK A01 T00121033  RH  072%=      5-min Rain = 0
KWT1 191215Z 34015KT 01/M03 A3019 RMK A01 T00111033  RH  072%=      5-min Rain = 0
KWT1 191216Z 35013G18KT 01/M03 A3019 RMK A01 T00111033  RH  072%=      5-min Rain = 0
KWT1 191217Z 34017KT 01/M03 A3019 RMK A01 T00111033  RH  073%=      5-min Rain = 0
KWT1 191218Z 34015KT 01/M03 A3019 RMK A01 T00111033  RH  073%=      5-min Rain = 0
KWT1 191219Z 34014KT 01/M03 A3019 RMK A01 T00111033  RH  073%=      5-min Rain = 0
KWT1 191220Z 34017KT 01/M03 A3019 RMK A01 T00111032  RH  073%=      5-min Rain = 0
KWT1 191221Z 34015KT 01/M03 A3019 RMK A01 T00111032  RH  073%=      5-min Rain = 0
KWT1 191222Z 34017KT 01/M03 A3019 RMK A01 T00111032  RH  073%=      5-min Rain = 0
KWT1 191223Z 34016KT 01/M03 A3019 RMK A01 T00111032  RH  073%=      5-min Rain = 0
KWT1 191224Z 34013G18KT 01/M03 A3019 RMK A01 T00101032  RH  073%=      5-min Rain = 0
KWT1 191225Z 34018KT 01/M03 A3019 RMK A01 T00101032  RH  074%=      5-min Rain = 0
KWT1 191226Z 34016KT 01/M03 A3019 RMK A01 T00101032  RH  074%=      5-min Rain = 0
KWT1 191227Z 33017KT 01/M03 A3019 RMK A01 T00101032  RH  073%=      5-min Rain = 0
KWT1 191228Z 34016G21KT 01/M03 A3019 RMK A01 T00101033  RH  073%=      5-min Rain = 0
KWT1 191229Z 33017KT 01/M03 A3019 RMK A01 T00101033  RH  073%=      5-min Rain = 0
KWT1 191230Z 33015KT 01/M03 A302 RMK A01 T00101033  RH  073%=      5-min Rain = 0
KWT1 191231Z 34018G23KT 01/M03 A302 RMK A01 T00101033  RH  073%=      5-min Rain = 0
KWT1 191232Z 34016G21KT 01/M03 A302 RMK A01 T00101033  RH  073%=      5-min Rain = 0
KWT1 191233Z 34017G23KT 01/M03 A302 RMK A01 T00091034  RH  073%=      5-min Rain = 0
KWT1 191234Z 34015G21KT 01/M03 A302 RMK A01 T00091034  RH  073%=      5-min Rain = 0
KWT1 191235Z 34015KT 01/M03 A302 RMK A01 T00091034  RH  073%=      5-min Rain = 0
KWT1 191236Z 34015KT 01/M03 A302 RMK A01 T00081034  RH  073%=      5-min Rain = 0
KWT1 191237Z 34017KT 01/M04 A302 RMK A01 T00081035  RH  073%=      5-min Rain = 0
KWT1 191238Z 34013G19KT 01/M04 A302 RMK A01 T00081035  RH  073%=      5-min Rain = 0
KWT1 191239Z 34016KT 01/M04 A302 RMK A01 T00081035  RH  073%=      5-min Rain = 0
KWT1 191240Z 34017KT 01/M04 A302 RMK A01 T00081035  RH  073%=      5-min Rain = 0
KWT1 191241Z 34014KT 01/M04 A302 RMK A01 T00071035  RH  073%=      5-min Rain = 0
KWT1 191242Z 33014KT 01/M04 A302 RMK A01 T00071036  RH  073%=      5-min Rain = 0
KWT1 191243Z 34016KT 01/M04 A302 RMK A01 T00061035  RH  073%=      5-min Rain = 0
KWT1 191244Z 34014KT 01/M04 A302 RMK A01 T00061036  RH  073%=      5-min Rain = 0
KWT1 191245Z 33015KT 01/M04 A302 RMK A01 T00071035  RH  074%=      5-min Rain = 0
KWT1 191246Z 35013G18KT 01/M04 A302 RMK A01 T00061035  RH  074%=      5-min Rain = 0
KWT1 191247Z 34016G21KT 01/M04 A302 RMK A01 T00051036  RH  074%=      5-min Rain = 0
KWT1 191248Z 34015KT 01/M04 A3021 RMK A01 T00051036  RH  074%=      5-min Rain = 0
KWT1 191249Z 34014KT 01/M04 A3021 RMK A01 T00061036  RH  074%=      5-min Rain = 0
KWT1 191250Z 34015KT 01/M04 A3021 RMK A01 T00061036  RH  074%=      5-min Rain = 0
KWT1 191251Z 35014G19KT 01/M04 A3021 RMK A01 T00051036  RH  074%=      5-min Rain = 0
KWT1 191252Z 34014KT 01/M04 A3021 RMK A01 T00051036  RH  074%=      5-min Rain = 0
KWT1 191253Z 34014G19KT 01/M04 A3021 RMK A01 T00051036  RH  074%=      5-min Rain = 0
KWT1 191254Z 34013KT 01/M04 A3021 RMK A01 T00051036  RH  074%=      5-min Rain = 0
KWT1 191255Z 33016KT 00/M04 A3021 RMK A01 T00041036  RH  074%=      5-min Rain = 0
KWT1 191256Z 34016KT 00/M04 A3021 RMK A01 T00041036  RH  074%=      5-min Rain = 0
KWT1 191257Z 33016KT 00/M04 A3021 RMK A01 T00041037  RH  074%=      5-min Rain = 0
KWT1 191258Z 34016KT 00/M04 A3021 RMK A01 T00041036  RH  074%=      5-min Rain = 0
KWT1 191259Z 34014G20KT 00/M04 A3021 RMK A01 T00041036  RH  074%=      5-min Rain = 0
KWT1 191300Z 34014G20KT 00/M04 A3021 RMK A01 T00041037  RH  074%=      5-min Rain = 0
KWT1 191301Z 34013KT 00/M04 A3022 RMK A01 T00041036  RH  074%=      5-min Rain = 0
KWT1 191302Z 34014KT 00/M04 A3022 RMK A01 T00041036  RH  075%=      5-min Rain = 0
KWT1 191303Z 34014KT 00/M04 A3022 RMK A01 T00031036  RH  075%=      5-min Rain = 0
KWT1 191304Z 33015KT 00/M04 A3022 RMK A01 T00031036  RH  075%=      5-min Rain = 0
KWT1 191305Z 35012KT 00/M04 A3022 RMK A01 T00031036  RH  075%=      5-min Rain = 0
KWT1 191306Z 34012KT 00/M04 A3022 RMK A01 T00031037  RH  075%=      5-min Rain = 0
KWT1 191307Z 34015KT 00/M04 A3022 RMK A01 T00021037  RH  075%=      5-min Rain = 0
KWT1 191308Z 33011G16KT 00/M04 A3022 RMK A01 T00021037  RH  075%=      5-min Rain = 0
KWT1 191309Z 34014KT 00/M04 A3022 RMK A01 T00021036  RH  075%=      5-min Rain = 0
KWT1 191310Z 34014G19KT 00/M04 A3022 RMK A01 T00031036  RH  075%=      5-min Rain = 0
KWT1 191311Z 33014KT 00/M04 A3022 RMK A01 T00031037  RH  075%=      5-min Rain = 0
KWT1 191312Z 34013KT 00/M04 A3022 RMK A01 T00031037  RH  075%=      5-min Rain = 0
KWT1 191313Z 34013KT 00/M04 A3022 RMK A01 T00031037  RH  074%=      5-min Rain = 0
KWT1 191314Z 34014KT 00/M04 A3022 RMK A01 T00031037  RH  075%=      5-min Rain = 0
KWT1 191315Z 34014KT 00/M04 A3023 RMK A01 T00031037  RH  074%=      5-min Rain = 0
KWT1 191316Z 34015KT 00/M04 A3023 RMK A01 T00031037  RH  075%=      5-min Rain = 0
KWT1 191317Z 34015KT 00/M04 A3023 RMK A01 T00031037  RH  074%=      5-min Rain = 0
KWT1 191318Z 33015KT 00/M04 A3023 RMK A01 T00031037  RH  074%=      5-min Rain = 0
KWT1 191319Z 34015KT 00/M04 A3023 RMK A01 T00031037  RH  074%=      5-min Rain = 0
KWT1 191320Z 34013KT 00/M04 A3023 RMK A01 T00031037  RH  074%=      5-min Rain = 0
KWT1 191321Z 33011KT 00/M04 A3023 RMK A01 T00031037  RH  075%=      5-min Rain = 0
KWT1 191322Z 34012KT 00/M04 A3024 RMK A01 T00021037  RH  075%=      5-min Rain = 0
KWT1 191323Z 34013KT 00/M04 A3024 RMK A01 T00011038  RH  075%=      5-min Rain = 0
KWT1 191324Z 33010KT 00/M04 A3024 RMK A01 T00011037  RH  075%=      5-min Rain = 0
KWT1 191325Z 33011KT 00/M04 A3024 RMK A01 T00011037  RH  076%=      5-min Rain = 0
KWT1 191326Z 34010KT 00/M04 A3024 RMK A01 T00011037  RH  076%=      5-min Rain = 0
KWT1 191327Z 34013KT 00/M04 A3024 RMK A01 T00011037  RH  076%=      5-min Rain = 0
KWT1 191328Z 34012KT 00/M04 A3024 RMK A01 T00021036  RH  076%=      5-min Rain = 0
KWT1 191329Z 33010KT 00/M04 A3024 RMK A01 T00011037  RH  076%=      5-min Rain = 0
KWT1 191330Z 34012KT 00/M04 A3024 RMK A01 T00011036  RH  076%=      5-min Rain = 0
KWT1 191331Z 32012KT 00/M04 A3024 RMK A01 T00021036  RH  076%=      5-min Rain = 0
KWT1 191332Z 34010KT 00/M04 A3024 RMK A01 T00021036  RH  075%=      5-min Rain = 0
KWT1 191333Z 33011KT 00/M04 A3024 RMK A01 T00021037  RH  075%=      5-min Rain = 0
KWT1 191334Z 33010KT 00/M04 A3024 RMK A01 T00011037  RH  075%=      5-min Rain = 0
KWT1 191335Z 34008KT 00/M04 A3024 RMK A01 T00011037  RH  076%=      5-min Rain = 0
KWT1 191336Z 34011G16KT 00/M04 A3024 RMK A01 T00011037  RH  076%=      5-min Rain = 0
KWT1 191337Z 33012KT 00/M04 A3024 RMK A01 T00011037  RH  076%=      5-min Rain = 0
KWT1 191338Z 33010KT 00/M04 A3024 RMK A01 T00011036  RH  076%=      5-min Rain = 0
KWT1 191339Z 34012KT 00/M04 A3024 RMK A01 T00011036  RH  076%=      5-min Rain = 0
KWT1 191340Z 33013KT 00/M04 A3024 RMK A01 T00021036  RH  075%=      5-min Rain = 0
KWT1 191341Z 34013KT 00/M04 A3024 RMK A01 T00021037  RH  075%=      5-min Rain = 0
KWT1 191342Z 33012KT 00/M04 A3024 RMK A01 T00021037  RH  075%=      5-min Rain = 0
KWT1 191343Z 34011KT 00/M04 A3024 RMK A01 T00021037  RH  075%=      5-min Rain = 0
KWT1 191344Z 34010KT 00/M04 A3024 RMK A01 T00011037  RH  075%=      5-min Rain = 0
KWT1 191345Z 34011KT 00/M04 A3024 RMK A01 T00011037  RH  075%=      5-min Rain = 0
KWT1 191346Z 34010KT 00/M04 A3025 RMK A01 T00011037  RH  075%=      5-min Rain = 0
KWT1 191347Z 34011KT 00/M04 A3025 RMK A01 T00011037  RH  076%=      5-min Rain = 0
KWT1 191348Z 33010KT 00/04 A3025 RMK A01 T00000-37  RH  076%=      5-min Rain = 0
KWT1 191349Z 33008KT 00/04 A3025 RMK A01 T00000-37  RH  076%=      5-min Rain = 0
KWT1 191350Z 34011KT 00/04 A3025 RMK A01 T00000-37  RH  076%=      5-min Rain = 0
KWT1 191351Z 34010KT 00/04 A3025 RMK A01 T00000-37  RH  076%=      5-min Rain = 0
KWT1 191352Z 33010KT 00/04 A3025 RMK A01 T00000-37  RH  076%=      5-min Rain = 0
KWT1 191353Z 34010KT 00/04 A3025 RMK A01 T00000-37  RH  076%=      5-min Rain = 0
KWT1 191354Z 34009KT 00/04 A3025 RMK A01 T00000-37  RH  076%=      5-min Rain = 0
KWT1 191355Z 34009KT 00/04 A3025 RMK A01 T00000-37  RH  076%=      5-min Rain = 0
KWT1 191356Z 33009KT 00/04 A3025 RMK A01 T00000-37  RH  076%=      5-min Rain = 0
KWT1 191357Z 34011KT 00/04 A3025 RMK A01 T00000-37  RH  076%=      5-min Rain = 0
KWT1 191358Z 34010KT 00/04 A3025 RMK A01 T00000-36  RH  076%=      5-min Rain = 0
KWT1 191359Z 34008KT 00/M04 A3025 RMK A01 T00011037  RH  076%=      5-min Rain = 0
KWT1 191400Z 34008KT 00/M04 A3025 RMK A01 T00011037  RH  076%=      5-min Rain = 0
KWT1 191401Z 34010KT 00/04 A3025 RMK A01 T00000-37  RH  076%=      5-min Rain = 0
KWT1 191402Z 34010KT 00/M04 A3026 RMK A01 T00011036  RH  076%=      5-min Rain = 0
KWT1 191403Z 34009KT 00/M04 A3026 RMK A01 T00011036  RH  076%=      5-min Rain = 0
KWT1 191404Z 33008KT 00/M04 A3026 RMK A01 T00011036  RH  076%=      5-min Rain = 0
KWT1 191405Z 34008KT 00/M04 A3025 RMK A01 T00011036  RH  076%=      5-min Rain = 0
KWT1 191406Z 34009KT 00/M04 A3025 RMK A01 T00011036  RH  076%=      5-min Rain = 0
KWT1 191407Z 33011KT 00/M04 A3025 RMK A01 T00011036  RH  076%=      5-min Rain = 0
KWT1 191408Z 33010KT 00/M04 A3026 RMK A01 T00021036  RH  076%=      5-min Rain = 0
KWT1 191409Z 34013KT 00/M04 A3026 RMK A01 T00031036  RH  075%=      5-min Rain = 0
KWT1 191410Z 34013KT 00/M04 A3026 RMK A01 T00031036  RH  075%=      5-min Rain = 0
KWT1 191411Z 33012KT 00/M04 A3026 RMK A01 T00041036  RH  074%=      5-min Rain = 0
KWT1 191412Z 33012KT 01/M04 A3026 RMK A01 T00051036  RH  074%=      5-min Rain = 0
KWT1 191413Z 33012KT 01/M04 A3026 RMK A01 T00051036  RH  074%=      5-min Rain = 0
KWT1 191414Z 33011KT 01/M04 A3026 RMK A01 T00061036  RH  073%=      5-min Rain = 0
KWT1 191415Z 33011KT 01/M04 A3027 RMK A01 T00061036  RH  073%=      5-min Rain = 0
KWT1 191416Z 32012KT 01/M04 A3027 RMK A01 T00061036  RH  073%=      5-min Rain = 0
KWT1 191417Z 32011KT 01/M04 A3027 RMK A01 T00071036  RH  073%=      5-min Rain = 0
KWT1 191418Z 33011KT 01/M04 A3027 RMK A01 T00071035  RH  073%=      5-min Rain = 0
KWT1 191419Z 32014KT 01/M04 A3027 RMK A01 T00071035  RH  073%=      5-min Rain = 0
KWT1 191420Z 32014KT 01/M04 A3027 RMK A01 T00081036  RH  073%=      5-min Rain = 0
KWT1 191421Z 32015KT 01/M04 A3027 RMK A01 T00071036  RH  073%=      5-min Rain = 0
KWT1 191422Z 32013KT 01/M04 A3027 RMK A01 T00071037  RH  072%=      5-min Rain = 0
KWT1 191423Z 32012KT 01/M04 A3027 RMK A01 T00081036  RH  073%=      5-min Rain = 0
KWT1 191424Z 33012KT 01/M04 A3027 RMK A01 T00081036  RH  073%=      5-min Rain = 0
KWT1 191425Z 32011KT 01/M04 A3027 RMK A01 T00071036  RH  073%=      5-min Rain = 0
KWT1 191426Z 32011KT 01/M04 A3027 RMK A01 T00071035  RH  073%=      5-min Rain = 0
KWT1 191427Z 32012KT 01/M04 A3027 RMK A01 T00071035  RH  073%=      5-min Rain = 0
KWT1 191428Z 32014KT 01/M04 A3027 RMK A01 T00081035  RH  073%=      5-min Rain = 0
KWT1 191429Z 33011KT 01/M04 A3027 RMK A01 T00081035  RH  073%=      5-min Rain = 0
KWT1 191430Z 32012KT 01/M04 A3027 RMK A01 T00091035  RH  073%=      5-min Rain = 0
KWT1 191431Z 32014KT 01/M04 A3027 RMK A01 T00091035  RH  073%=      5-min Rain = 0
KWT1 191432Z 32013KT 01/M04 A3027 RMK A01 T00091035  RH  072%=      5-min Rain = 0
KWT1 191433Z 33012KT 01/M04 A3027 RMK A01 T00101035  RH  072%=      5-min Rain = 0
KWT1 191434Z 33012KT 01/M03 A3027 RMK A01 T00101034  RH  072%=      5-min Rain = 0
KWT1 191435Z 33012KT 01/M03 A3027 RMK A01 T00101034  RH  072%=      5-min Rain = 0
KWT1 191436Z 33011G17KT 01/M03 A3027 RMK A01 T00101034  RH  072%=      5-min Rain = 0
KWT1 191437Z 32013KT 01/M03 A3027 RMK A01 T00111034  RH  072%=      5-min Rain = 0
KWT1 191438Z 33012KT 01/M03 A3027 RMK A01 T00111034  RH  072%=      5-min Rain = 0
KWT1 191439Z 33014KT 01/M03 A3028 RMK A01 T00121034  RH  072%=      5-min Rain = 0
KWT1 191440Z 32011KT 01/M03 A3028 RMK A01 T00121033  RH  072%=      5-min Rain = 0
KWT1 191441Z 32016KT 01/M03 A3028 RMK A01 T00131033  RH  072%=      5-min Rain = 0
KWT1 191442Z 32013KT 01/M03 A3028 RMK A01 T00131034  RH  071%=      5-min Rain = 0
KWT1 191443Z 32014KT 01/M03 A3028 RMK A01 T00131034  RH  071%=      5-min Rain = 0
KWT1 191444Z 32016KT 01/M03 A3028 RMK A01 T00131034  RH  071%=      5-min Rain = 0
KWT1 191445Z 32015KT 01/M03 A3028 RMK A01 T00131034  RH  071%=      5-min Rain = 0
KWT1 191446Z 33013KT 01/M03 A3028 RMK A01 T00131034  RH  071%=      5-min Rain = 0
KWT1 191447Z 32014KT 01/M03 A3028 RMK A01 T00141033  RH  071%=      5-min Rain = 0
KWT1 191448Z 32013KT 01/M03 A3028 RMK A01 T00141033  RH  071%=      5-min Rain = 0
KWT1 191449Z 32015G20KT 02/M03 A3028 RMK A01 T00151032  RH  071%=      5-min Rain = 0
KWT1 191450Z 33015KT 02/M03 A3028 RMK A01 T00151033  RH  070%=      5-min Rain = 0
KWT1 191451Z 33012KT 02/M03 A3029 RMK A01 T00161033  RH  070%=      5-min Rain = 0
KWT1 191452Z 32014KT 02/M03 A3029 RMK A01 T00161031  RH  071%=      5-min Rain = 0
KWT1 191453Z 32013G18KT 02/M03 A3029 RMK A01 T00171032  RH  070%=      5-min Rain = 0
KWT1 191454Z 32016G21KT 02/M03 A3029 RMK A01 T00171032  RH  070%=      5-min Rain = 0
KWT1 191455Z 33015KT 02/M03 A3029 RMK A01 T00171033  RH  070%=      5-min Rain = 0
KWT1 191456Z 33014KT 02/M03 A3029 RMK A01 T00171032  RH  070%=      5-min Rain = 0
KWT1 191457Z 33015KT 02/M03 A3029 RMK A01 T00181032  RH  070%=      5-min Rain = 0
KWT1 191458Z 33015KT 02/M03 A3029 RMK A01 T00181032  RH  069%=      5-min Rain = 0
KWT1 191459Z 33017KT 02/M03 A3029 RMK A01 T00181032  RH  069%=      5-min Rain = 0
KWT1 191500Z 32016KT 02/M03 A3029 RMK A01 T00191033  RH  069%=      5-min Rain = 0
KWT1 191501Z 33012KT 02/M03 A3029 RMK A01 T00191033  RH  069%=      5-min Rain = 0
KWT1 191502Z 33013KT 02/M03 A3029 RMK A01 T00191031  RH  069%=      5-min Rain = 0
KWT1 191503Z 33013KT 02/M03 A3029 RMK A01 T00201031  RH  069%=      5-min Rain = 0
KWT1 191504Z 33013G19KT 02/M03 A3029 RMK A01 T00211031  RH  069%=      5-min Rain = 0
KWT1 191505Z 33014KT 02/M03 A3029 RMK A01 T00221031  RH  068%=      5-min Rain = 0
KWT1 191506Z 33013KT 02/M03 A3029 RMK A01 T00221031  RH  068%=      5-min Rain = 0
KWT1 191507Z 32011KT 02/M03 A3029 RMK A01 T00231030  RH  068%=      5-min Rain = 0
KWT1 191508Z 32011G16KT 02/M03 A303 RMK A01 T00241028  RH  068%=      5-min Rain = 0
KWT1 191509Z 33014KT 03/M03 A303 RMK A01 T00261028  RH  068%=      5-min Rain = 0
KWT1 191510Z 32017KT 03/M03 A303 RMK A01 T00261031  RH  066%=      5-min Rain = 0
KWT1 191511Z 33015KT 03/M03 A303 RMK A01 T00261033  RH  065%=      5-min Rain = 0
KWT1 191512Z 33015G21KT 03/M03 A303 RMK A01 T00261032  RH  066%=      5-min Rain = 0
KWT1 191513Z 33013G18KT 03/M03 A303 RMK A01 T00271032  RH  065%=      5-min Rain = 0
KWT1 191514Z 32012KT 03/M03 A303 RMK A01 T00281031  RH  065%=      5-min Rain = 0
KWT1 191515Z 33015G21KT 03/M03 A303 RMK A01 T00291032  RH  064%=      5-min Rain = 0
KWT1 191516Z 33017KT 03/M03 A303 RMK A01 T00291034  RH  063%=      5-min Rain = 0
KWT1 191517Z 33019KT 03/M03 A303 RMK A01 T00291034  RH  063%=      5-min Rain = 0
KWT1 191518Z 32016G21KT 03/M04 A303 RMK A01 T00291036  RH  063%=      5-min Rain = 0
KWT1 191519Z 32019KT 03/M03 A303 RMK A01 T00291034  RH  063%=      5-min Rain = 0
KWT1 191520Z 33015G20KT 03/M04 A303 RMK A01 T00281035  RH  063%=      5-min Rain = 0
KWT1 191521Z 34018KT 03/M03 A303 RMK A01 T00291033  RH  064%=      5-min Rain = 0
KWT1 191522Z 33019KT 03/M03 A303 RMK A01 T00291033  RH  064%=      5-min Rain = 0
KWT1 191523Z 34019KT 03/M03 A303 RMK A01 T00291034  RH  063%=      5-min Rain = 0
KWT1 191524Z 33020G25KT 03/M03 A3031 RMK A01 T00291033  RH  063%=      5-min Rain = 0
KWT1 191525Z 33018KT 03/M03 A3031 RMK A01 T00291033  RH  064%=      5-min Rain = 0
KWT1 191526Z 33016G21KT 03/M03 A3031 RMK A01 T00291033  RH  064%=      5-min Rain = 0
KWT1 191527Z 33018G23KT 03/M03 A3031 RMK A01 T00291034  RH  063%=      5-min Rain = 0
KWT1 191528Z 33020G25KT 03/M03 A3031 RMK A01 T00291034  RH  063%=      5-min Rain = 0
KWT1 191529Z 33015G20KT 03/M04 A3031 RMK A01 T00291035  RH  063%=      5-min Rain = 0
KWT1 191530Z 33019KT 03/M03 A3031 RMK A01 T00301033  RH  064%=      5-min Rain = 0
KWT1 191531Z 32018KT 03/M03 A3031 RMK A01 T00301033  RH  063%=      5-min Rain = 0
KWT1 191532Z 32018KT 03/M03 A3031 RMK A01 T00291033  RH  063%=      5-min Rain = 0
KWT1 191533Z 32018KT 03/M03 A3031 RMK A01 T00301033  RH  064%=      5-min Rain = 0
KWT1 191534Z 33017KT 03/M03 A3031 RMK A01 T00301033  RH  063%=      5-min Rain = 0
KWT1 191535Z 34016G23KT 03/M03 A3032 RMK A01 T00311032  RH  063%=      5-min Rain = 0
KWT1 191536Z 32016G21KT 03/M03 A3032 RMK A01 T00321031  RH  063%=      5-min Rain = 0
KWT1 191537Z 32020KT 03/M03 A3031 RMK A01 T00331032  RH  062%=      5-min Rain = 0
KWT1 191538Z 34015KT 03/M03 A3032 RMK A01 T00331033  RH  062%=      5-min Rain = 0
KWT1 191539Z 34015KT 03/M03 A3032 RMK A01 T00341031  RH  062%=      5-min Rain = 0
KWT1 191540Z 34018KT 04/M03 A3032 RMK A01 T00351031  RH  062%=      5-min Rain = 0
KWT1 191541Z 34015KT 04/M03 A3032 RMK A01 T00351032  RH  062%=      5-min Rain = 0
KWT1 191542Z 34018G25KT 04/M03 A3032 RMK A01 T00361030  RH  062%=      5-min Rain = 0
KWT1 191543Z 34020KT 04/M03 A3032 RMK A01 T00361032  RH  061%=      5-min Rain = 0
KWT1 191544Z 34016G25KT 04/M03 A3032 RMK A01 T00361032  RH  061%=      5-min Rain = 0
KWT1 191545Z 35017G22KT 04/M03 A3032 RMK A01 T00361032  RH  061%=      5-min Rain = 0
KWT1 191546Z 35016KT 04/M03 A3032 RMK A01 T00361033  RH  060%=      5-min Rain = 0
KWT1 191547Z 34015KT 04/M03 A3032 RMK A01 T00371032  RH  061%=      5-min Rain = 0
KWT1 191548Z 34015KT 04/M03 A3032 RMK A01 T00381031  RH  061%=      5-min Rain = 0
KWT1 191549Z 33017G22KT 04/M03 A3032 RMK A01 T00381032  RH  060%=      5-min Rain = 0
KWT1 191550Z 35016KT 04/M03 A3032 RMK A01 T00381032  RH  060%=      5-min Rain = 0
KWT1 191551Z 34017G24KT 04/M03 A3032 RMK A01 T00381033  RH  059%=      5-min Rain = 0
KWT1 191552Z 34017G22KT 04/M04 A3032 RMK A01 T00381035  RH  059%=      5-min Rain = 0
KWT1 191553Z 33014KT 04/M03 A3032 RMK A01 T00381032  RH  060%=      5-min Rain = 0
KWT1 191554Z 33018KT 04/M03 A3032 RMK A01 T00401031  RH  060%=      5-min Rain = 0
KWT1 191555Z 33019KT 04/M03 A3032 RMK A01 T00401033  RH  059%=      5-min Rain = 0
KWT1 191556Z 33016KT 04/M03 A3033 RMK A01 T00391033  RH  059%=      5-min Rain = 0
KWT1 191557Z 34016KT 04/M03 A3033 RMK A01 T00401031  RH  060%=      5-min Rain = 0
KWT1 191558Z 34013KT 04/M03 A3033 RMK A01 T00411031  RH  059%=      5-min Rain = 0
KWT1 191559Z 34015G22KT 04/M03 A3033 RMK A01 T00421030  RH  059%=      5-min Rain = 0
KWT1 191600Z 35020KT 04/M03 A3033 RMK A01 T00421032  RH  058%=      5-min Rain = 0
KWT1 191601Z 35018KT 04/M03 A3033 RMK A01 T00411034  RH  058%=      5-min Rain = 0
KWT1 191602Z 34017KT 04/M03 A3033 RMK A01 T00401033  RH  059%=      5-min Rain = 0
KWT1 191603Z 34016KT 04/M03 A3033 RMK A01 T00411032  RH  059%=      5-min Rain = 0
KWT1 191604Z 34016KT 04/M03 A3033 RMK A01 T00411032  RH  059%=      5-min Rain = 0
KWT1 191605Z 33019KT 04/M03 A3033 RMK A01 T00421032  RH  059%=      5-min Rain = 0
KWT1 191606Z 34020G25KT 04/M03 A3033 RMK A01 T00421033  RH  058%=      5-min Rain = 0
KWT1 191607Z 34018G23KT 04/M03 A3033 RMK A01 T00411034  RH  058%=      5-min Rain = 0
KWT1 191608Z 34019KT 04/M03 A3033 RMK A01 T00411033  RH  059%=      5-min Rain = 0
KWT1 191609Z 34018KT 04/M03 A3033 RMK A01 T00401033  RH  059%=      5-min Rain = 0
KWT1 191610Z 34018KT 04/M03 A3033 RMK A01 T00411032  RH  059%=      5-min Rain = 0
KWT1 191611Z 34019G25KT 04/M03 A3033 RMK A01 T00411033  RH  059%=      5-min Rain = 0
KWT1 191612Z 34020KT 04/M04 A3033 RMK A01 T00411035  RH  058%=      5-min Rain = 0
KWT1 191613Z 33019G26KT 04/M04 A3033 RMK A01 T00411035  RH  057%=      5-min Rain = 0
KWT1 191614Z 33017G22KT 04/M04 A3033 RMK A01 T00411037  RH  057%=      5-min Rain = 0
KWT1 191615Z 34021KT 04/M04 A3034 RMK A01 T00411035  RH  057%=      5-min Rain = 0
KWT1 191616Z 34021KT 04/M04 A3034 RMK A01 T00421036  RH  057%=      5-min Rain = 0
KWT1 191617Z 35019KT 04/M04 A3034 RMK A01 T00411037  RH  057%=      5-min Rain = 0
KWT1 191618Z 34015KT 04/M04 A3034 RMK A01 T00411036  RH  058%=      5-min Rain = 0
KWT1 191619Z 33016KT 04/M03 A3034 RMK A01 T00431032  RH  058%=      5-min Rain = 0
KWT1 191620Z 34013KT 05/M03 A3034 RMK A01 T00461030  RH  058%=      5-min Rain = 0
KWT1 191621Z 34017KT 05/M03 A3034 RMK A01 T00481031  RH  057%=      5-min Rain = 0
KWT1 191622Z 35018KT 05/M03 A3034 RMK A01 T00481032  RH  056%=      5-min Rain = 0
KWT1 191623Z 34014KT 05/M04 A3034 RMK A01 T00461036  RH  055%=      5-min Rain = 0
KWT1 191624Z 34012KT 05/M03 A3034 RMK A01 T00481031  RH  057%=      5-min Rain = 0
KWT1 191625Z 34016KT 05/M03 A3034 RMK A01 T00511031  RH  055%=      5-min Rain = 0
KWT1 191626Z 34017KT 05/M03 A3034 RMK A01 T00491033  RH  055%=      5-min Rain = 0
KWT1 191627Z 34019KT 05/M03 A3034 RMK A01 T00501033  RH  055%=      5-min Rain = 0
KWT1 191628Z 34019KT 05/M04 A3033 RMK A01 T00491037  RH  054%=      5-min Rain = 0
KWT1 191629Z 35017G22KT 05/M04 A3033 RMK A01 T00481038  RH  054%=      5-min Rain = 0
KWT1 191630Z 00021KT 05/M04 A3033 RMK A01 T00481040  RH  053%=      5-min Rain = 0
KWT1 191631Z 00020KT 05/M04 A3034 RMK A01 T00461041  RH  053%=      5-min Rain = 0
KWT1 191632Z 00019KT 05/M04 A3034 RMK A01 T00471039  RH  054%=      5-min Rain = 0
KWT1 191633Z 35013KT 05/M04 A3034 RMK A01 T00471038  RH  054%=      5-min Rain = 0
KWT1 191634Z 36014KT 05/M03 A3034 RMK A01 T00511034  RH  054%=      5-min Rain = 0
KWT1 191635Z 35013KT 05/M03 A3034 RMK A01 T00531033  RH  054%=      5-min Rain = 0
KWT1 191636Z 35014KT 06/M03 A3033 RMK A01 T00551034  RH  053%=      5-min Rain = 0
KWT1 191637Z 35019KT 06/M03 A3034 RMK A01 T00561033  RH  053%=      5-min Rain = 0
KWT1 191638Z 34018KT 05/M04 A3033 RMK A01 T00541037  RH  052%=      5-min Rain = 0
KWT1 191639Z 35017KT 05/M04 A3033 RMK A01 T00531037  RH  052%=      5-min Rain = 0
KWT1 191640Z 35018KT 05/M04 A3033 RMK A01 T00531037  RH  052%=      5-min Rain = 0
KWT1 191641Z 35020KT 05/M04 A3033 RMK A01 T00531037  RH  052%=      5-min Rain = 0
KWT1 191642Z 36020KT 05/M04 A3033 RMK A01 T00511039  RH  052%=      5-min Rain = 0
KWT1 191643Z 35020KT 05/M04 A3033 RMK A01 T00501039  RH  053%=      5-min Rain = 0
KWT1 191644Z 35017KT 05/M04 A3033 RMK A01 T00491039  RH  053%=      5-min Rain = 0
KWT1 191645Z 36019KT 05/M04 A3033 RMK A01 T00491037  RH  054%=      5-min Rain = 0
KWT1 191646Z 00017KT 05/M04 A3033 RMK A01 T00501036  RH  054%=      5-min Rain = 0
KWT1 191647Z 34017KT 05/M04 A3034 RMK A01 T00511035  RH  054%=      5-min Rain = 0
KWT1 191648Z 34017KT 05/M04 A3033 RMK A01 T00521035  RH  053%=      5-min Rain = 0
KWT1 191649Z 35017KT 05/M03 A3033 RMK A01 T00531034  RH  054%=      5-min Rain = 0
KWT1 191650Z 35015KT 05/M03 A3033 RMK A01 T00541034  RH  053%=      5-min Rain = 0
KWT1 191651Z 36017KT 06/M03 A3033 RMK A01 T00551033  RH  053%=      5-min Rain = 0
KWT1 191652Z 36015KT 06/M04 A3033 RMK A01 T00551035  RH  052%=      5-min Rain = 0
KWT1 191653Z 36014KT 05/M04 A3033 RMK A01 T00541035  RH  053%=      5-min Rain = 0
KWT1 191654Z 34015KT 06/M03 A3033 RMK A01 T00551034  RH  053%=      5-min Rain = 0
KWT1 191655Z 33017KT 06/M03 A3033 RMK A01 T00571032  RH  053%=      5-min Rain = 0
KWT1 191656Z 33016KT 06/M03 A3033 RMK A01 T00561034  RH  052%=      5-min Rain = 0
KWT1 191657Z 34019KT 06/M04 A3033 RMK A01 T00551035  RH  052%=      5-min Rain = 0
KWT1 191658Z 34018KT 05/M04 A3033 RMK A01 T00541036  RH  052%=      5-min Rain = 0
KWT1 191659Z 34017G22KT 05/M04 A3034 RMK A01 T00541035  RH  053%=      5-min Rain = 0
KWT1 191700Z 34017G22KT 05/M04 A3033 RMK A01 T00541036  RH  052%=      5-min Rain = 0
KWT1 191701Z 34020KT 05/M04 A3033 RMK A01 T00541035  RH  053%=      5-min Rain = 0
KWT1 191702Z 34018KT 05/M04 A3033 RMK A01 T00541036  RH  052%=      5-min Rain = 0
KWT1 191703Z 34018G23KT 05/M04 A3034 RMK A01 T00541035  RH  053%=      5-min Rain = 0
KWT1 191704Z 34018KT 05/M04 A3034 RMK A01 T00541035  RH  053%=      5-min Rain = 0
KWT1 191705Z 34017KT 05/M04 A3034 RMK A01 T00541036  RH  052%=      5-min Rain = 0
KWT1 191706Z 35017KT 05/M04 A3034 RMK A01 T00531036  RH  053%=      5-min Rain = 0
KWT1 191707Z 35017KT 05/M04 A3033 RMK A01 T00531036  RH  053%=      5-min Rain = 0
KWT1 191708Z 34013KT 05/M04 A3033 RMK A01 T00531036  RH  053%=      5-min Rain = 0
KWT1 191709Z 35013KT 05/M03 A3033 RMK A01 T00541034  RH  053%=      5-min Rain = 0
KWT1 191710Z 36016G21KT 06/M03 A3033 RMK A01 T00571032  RH  053%=      5-min Rain = 0
KWT1 191711Z 35016KT 06/M03 A3033 RMK A01 T00571033  RH  052%=      5-min Rain = 0
KWT1 191712Z 35015KT 06/M03 A3033 RMK A01 T00581033  RH  052%=      5-min Rain = 0
KWT1 191713Z 35015KT 06/M03 A3033 RMK A01 T00571034  RH  052%=      5-min Rain = 0
KWT1 191714Z 34017G22KT 06/M03 A3033 RMK A01 T00571034  RH  052%=      5-min Rain = 0
KWT1 191715Z 36018G23KT 06/M03 A3033 RMK A01 T00581034  RH  051%=      5-min Rain = 0
KWT1 191716Z 34017KT 06/M04 A3033 RMK A01 T00581035  RH  051%=      5-min Rain = 0
KWT1 191717Z 36018KT 06/M04 A3033 RMK A01 T00581036  RH  051%=      5-min Rain = 0
KWT1 191718Z 34017KT 06/M04 A3033 RMK A01 T00571036  RH  051%=      5-min Rain = 0
KWT1 191719Z 35018G23KT 06/M03 A3033 RMK A01 T00581034  RH  052%=      5-min Rain = 0
KWT1 191720Z 34019KT 06/M03 A3033 RMK A01 T00591034  RH  051%=      5-min Rain = 0
KWT1 191721Z 34016KT 06/M04 A3033 RMK A01 T00571037  RH  051%=      5-min Rain = 0
KWT1 191722Z 34016KT 06/M03 A3033 RMK A01 T00571034  RH  052%=      5-min Rain = 0
KWT1 191723Z 34014G19KT 06/M03 A3033 RMK A01 T00591033  RH  051%=      5-min Rain = 0
KWT1 191724Z 00017KT 06/M03 A3033 RMK A01 T00631031  RH  051%=      5-min Rain = 0
KWT1 191725Z 36015KT 06/M04 A3033 RMK A01 T00611035  RH  050%=      5-min Rain = 0
KWT1 191726Z 35016KT 06/M04 A3033 RMK A01 T00601035  RH  050%=      5-min Rain = 0
KWT1 191727Z 34016KT 06/M04 A3033 RMK A01 T00581036  RH  051%=      5-min Rain = 0
KWT1 191728Z 34013KT 06/M04 A3033 RMK A01 T00571036  RH  051%=      5-min Rain = 0
KWT1 191729Z 35015KT 06/M03 A3033 RMK A01 T00601032  RH  052%=      5-min Rain = 0
KWT1 191730Z 35016KT 06/M03 A3033 RMK A01 T00621032  RH  051%=      5-min Rain = 0
KWT1 191731Z 35017KT 06/M03 A3033 RMK A01 T00621033  RH  050%=      5-min Rain = 0
KWT1 191732Z 35016KT 06/M03 A3033 RMK A01 T00611034  RH  050%=      5-min Rain = 0
KWT1 191733Z 35014KT 06/M04 A3033 RMK A01 T00591035  RH  051%=      5-min Rain = 0
KWT1 191734Z 34014KT 06/M03 A3033 RMK A01 T00591034  RH  051%=      5-min Rain = 0
KWT1 191735Z 33012KT 06/M03 A3033 RMK A01 T00601033  RH  051%=      5-min Rain = 0
KWT1 191736Z 34013KT 06/M03 A3033 RMK A01 T00591034  RH  051%=      5-min Rain = 0
KWT1 191737Z 35014KT 06/M03 A3033 RMK A01 T00621030  RH  052%=      5-min Rain = 0
KWT1 191738Z 00018KT 06/M03 A3033 RMK A01 T00641032  RH  050%=      5-min Rain = 0
KWT1 191739Z 36018KT 06/M03 A3033 RMK A01 T00641034  RH  050%=      5-min Rain = 0
KWT1 191740Z 36018KT 06/M03 A3033 RMK A01 T00641033  RH  050%=      5-min Rain = 0
KWT1 191741Z 36018KT 06/M04 A3033 RMK A01 T00631036  RH  049%=      5-min Rain = 0
KWT1 191742Z 36017KT 06/M04 A3033 RMK A01 T00611036  RH  050%=      5-min Rain = 0
KWT1 191743Z 36015KT 06/M04 A3033 RMK A01 T00611035  RH  050%=      5-min Rain = 0
KWT1 191744Z 35015KT 06/M03 A3033 RMK A01 T00631033  RH  050%=      5-min Rain = 0
KWT1 191745Z 36017KT 06/M03 A3033 RMK A01 T00631034  RH  050%=      5-min Rain = 0
KWT1 191746Z 35017KT 06/M03 A3033 RMK A01 T00641032  RH  050%=      5-min Rain = 0
KWT1 191747Z 34014KT 07/M03 A3033 RMK A01 T00651033  RH  050%=      5-min Rain = 0
KWT1 191748Z 33014KT 07/M03 A3033 RMK A01 T00661033  RH  049%=      5-min Rain = 0
KWT1 191749Z 34019KT 07/M03 A3033 RMK A01 T00671032  RH  049%=      5-min Rain = 0
KWT1 191750Z 34016KT 07/M04 A3033 RMK A01 T00651035  RH  049%=      5-min Rain = 0
KWT1 191751Z 35014KT 06/M03 A3033 RMK A01 T00641033  RH  050%=      5-min Rain = 0
KWT1 191752Z 00015KT 07/M03 A3033 RMK A01 T00661033  RH  049%=      5-min Rain = 0
KWT1 191753Z 35012KT 07/M03 A3033 RMK A01 T00661033  RH  049%=      5-min Rain = 0
KWT1 191754Z 35013G18KT 07/M03 A3033 RMK A01 T00661033  RH  049%=      5-min Rain = 0
KWT1 191755Z 35015KT 07/M03 A3033 RMK A01 T00661033  RH  049%=      5-min Rain = 0
KWT1 191756Z 35015KT 07/M03 A3033 RMK A01 T00651033  RH  050%=      5-min Rain = 0
KWT1 191757Z 35015KT 07/M03 A3033 RMK A01 T00661032  RH  050%=      5-min Rain = 0
KWT1 191758Z 35012KT 07/M03 A3033 RMK A01 T00661032  RH  050%=      5-min Rain = 0
KWT1 191759Z 34012KT 07/M03 A3033 RMK A01 T00711027  RH  050%=      5-min Rain = 0
KWT1 191800Z 34011G17KT 07/M03 A3033 RMK A01 T00741027  RH  049%=      5-min Rain = 0
KWT1 191801Z 35017KT 07/M03 A3033 RMK A01 T00741030  RH  048%=      5-min Rain = 0
KWT1 191802Z 35014KT 07/M03 A3033 RMK A01 T00731031  RH  048%=      5-min Rain = 0
KWT1 191803Z 34015KT 07/M03 A3032 RMK A01 T00741031  RH  047%=      5-min Rain = 0
KWT1 191804Z 35016KT 07/M03 A3032 RMK A01 T00741030  RH  047%=      5-min Rain = 0
KWT1 191805Z 35013KT 07/M03 A3032 RMK A01 T00741031  RH  047%=      5-min Rain = 0
KWT1 191806Z 34017G23KT 07/M03 A3032 RMK A01 T00741030  RH  047%=      5-min Rain = 0
KWT1 191807Z 33015KT 07/M03 A3032 RMK A01 T00721034  RH  047%=      5-min Rain = 0
KWT1 191808Z 34018G23KT 07/M04 A3032 RMK A01 T00701035  RH  047%=      5-min Rain = 0
KWT1 191809Z 34019KT 07/M03 A3032 RMK A01 T00701034  RH  048%=      5-min Rain = 0
KWT1 191810Z 34018KT 07/M03 A3032 RMK A01 T00701034  RH  047%=      5-min Rain = 0
KWT1 191811Z 34015G20KT 07/M04 A3032 RMK A01 T00691035  RH  048%=      5-min Rain = 0
KWT1 191812Z 34016G21KT 07/M03 A3032 RMK A01 T00701033  RH  048%=      5-min Rain = 0
KWT1 191813Z 34015KT 07/M03 A3032 RMK A01 T00711033  RH  048%=      5-min Rain = 0
KWT1 191814Z 34013KT 07/M03 A3032 RMK A01 T00711032  RH  048%=      5-min Rain = 0
KWT1 191815Z 36011KT 07/M03 A3032 RMK A01 T00721030  RH  048%=      5-min Rain = 0
KWT1 191816Z 35014KT 08/M03 A3032 RMK A01 T00751029  RH  048%=      5-min Rain = 0
KWT1 191817Z 33014KT 08/M03 A3031 RMK A01 T00751031  RH  047%=      5-min Rain = 0
KWT1 191818Z 32016KT 08/M03 A3031 RMK A01 T00751032  RH  047%=      5-min Rain = 0
KWT1 191819Z 32017KT 07/M03 A3031 RMK A01 T00731034  RH  047%=      5-min Rain = 0
KWT1 191820Z 33012KT 07/M03 A3031 RMK A01 T00741031  RH  047%=      5-min Rain = 0
KWT1 191821Z 35015KT 08/M03 A3031 RMK A01 T00781028  RH  047%=      5-min Rain = 0
KWT1 191822Z 34013KT 08/M03 A3031 RMK A01 T00781029  RH  046%=      5-min Rain = 0
KWT1 191823Z 33015KT 08/M03 A3031 RMK A01 T00801028  RH  046%=      5-min Rain = 0
KWT1 191824Z 34016KT 08/M03 A3031 RMK A01 T00781032  RH  045%=      5-min Rain = 0
KWT1 191825Z 33017KT 08/M03 A3031 RMK A01 T00771033  RH  046%=      5-min Rain = 0
KWT1 191826Z 33017KT 08/M03 A3031 RMK A01 T00761033  RH  046%=      5-min Rain = 0
KWT1 191827Z 33018KT 08/M03 A3031 RMK A01 T00761033  RH  046%=      5-min Rain = 0
KWT1 191828Z 33014G20KT 07/M03 A3031 RMK A01 T00741034  RH  046%=      5-min Rain = 0
KWT1 191829Z 34017KT 07/M03 A3031 RMK A01 T00741032  RH  047%=      5-min Rain = 0
KWT1 191830Z 34018KT 08/M03 A3031 RMK A01 T00751032  RH  047%=      5-min Rain = 0
KWT1 191831Z 34014KT 08/M03 A3031 RMK A01 T00751031  RH  047%=      5-min Rain = 0
KWT1 191832Z 33015KT 08/M03 A3031 RMK A01 T00781028  RH  047%=      5-min Rain = 0
KWT1 191833Z 32016G21KT 08/M03 A3031 RMK A01 T00791030  RH  046%=      5-min Rain = 0
KWT1 191834Z 32017KT 08/M03 A3031 RMK A01 T00791032  RH  045%=      5-min Rain = 0
KWT1 191835Z 32014G19KT 08/M03 A3031 RMK A01 T00781033  RH  046%=      5-min Rain = 0
KWT1 191836Z 33013KT 08/M03 A3031 RMK A01 T00791030  RH  046%=      5-min Rain = 0
KWT1 191837Z 32014KT 08/M03 A3031 RMK A01 T00811027  RH  046%=      5-min Rain = 0
KWT1 191838Z 33013KT 08/M03 A3031 RMK A01 T00831028  RH  046%=      5-min Rain = 0
KWT1 191839Z 33015KT 08/M03 A3031 RMK A01 T00811030  RH  045%=      5-min Rain = 0
KWT1 191840Z 34013KT 08/M03 A303 RMK A01 T00821029  RH  045%=      5-min Rain = 0
KWT1 191841Z 35014KT 08/M03 A3031 RMK A01 T00841028  RH  045%=      5-min Rain = 0
KWT1 191842Z 34014KT 09/M03 A3031 RMK A01 T00871027  RH  045%=      5-min Rain = 0
KWT1 191843Z 33013KT 09/M03 A3031 RMK A01 T00851031  RH  044%=      5-min Rain = 0
KWT1 191844Z 32014KT 09/M03 A303 RMK A01 T00851027  RH  045%=      5-min Rain = 0
KWT1 191845Z 34014KT 09/M03 A303 RMK A01 T00881027  RH  044%=      5-min Rain = 0
KWT1 191846Z 34013KT 09/M03 A3031 RMK A01 T00871030  RH  044%=      5-min Rain = 0
KWT1 191847Z 32015G20KT 09/M03 A303 RMK A01 T00871028  RH  044%=      5-min Rain = 0
KWT1 191848Z 32018KT 08/M03 A303 RMK A01 T00841032  RH  044%=      5-min Rain = 0
KWT1 191849Z 32018KT 08/M03 A303 RMK A01 T00801033  RH  045%=      5-min Rain = 0
KWT1 191850Z 34013KT 08/M03 A303 RMK A01 T00801032  RH  045%=      5-min Rain = 0
KWT1 191851Z 33012KT 08/M03 A303 RMK A01 T00841027  RH  045%=      5-min Rain = 0
KWT1 191852Z 33011KT 09/M03 A303 RMK A01 T00871025  RH  045%=      5-min Rain = 0
KWT1 191853Z 33013KT 09/M03 A303 RMK A01 T00901026  RH  044%=      5-min Rain = 0
KWT1 191854Z 34015KT 09/M03 A303 RMK A01 T00851030  RH  044%=      5-min Rain = 0
KWT1 191855Z 33015KT 08/M03 A303 RMK A01 T00831030  RH  045%=      5-min Rain = 0
KWT1 191856Z 32011KT 08/M03 A303 RMK A01 T00821030  RH  045%=      5-min Rain = 0
KWT1 191857Z 32010KT 08/M03 A303 RMK A01 T00811029  RH  046%=      5-min Rain = 0
KWT1 191858Z 33009KT 09/M02 A303 RMK A01 T00851024  RH  046%=      5-min Rain = 0
KWT1 191859Z 32014KT 09/M02 A303 RMK A01 T00901023  RH  045%=      5-min Rain = 0
KWT1 191900Z 33012G17KT 09/M03 A303 RMK A01 T00911025  RH  044%=      5-min Rain = 0
KWT1 191901Z 33016KT 09/M03 A303 RMK A01 T00911028  RH  043%=      5-min Rain = 0
KWT1 191902Z 34013KT 09/M03 A303 RMK A01 T00851033  RH  043%=      5-min Rain = 0
KWT1 191903Z 34011KT 08/M03 A303 RMK A01 T00831032  RH  044%=      5-min Rain = 0
KWT1 191904Z 34013KT 09/M03 A303 RMK A01 T00851027  RH  045%=      5-min Rain = 0
KWT1 191905Z 34016G21KT 09/M03 A303 RMK A01 T00901027  RH  044%=      5-min Rain = 0
KWT1 191906Z 33017KT 09/M03 A303 RMK A01 T00881031  RH  043%=      5-min Rain = 0
KWT1 191907Z 34017KT 09/M03 A303 RMK A01 T00881030  RH  043%=      5-min Rain = 0
KWT1 191908Z 33016KT 09/M03 A3029 RMK A01 T00891030  RH  043%=      5-min Rain = 0
KWT1 191909Z 33016KT 09/M03 A3029 RMK A01 T00881030  RH  043%=      5-min Rain = 0
KWT1 191910Z 34016KT 09/M03 A3029 RMK A01 T00891029  RH  043%=      5-min Rain = 0
KWT1 191911Z 34013KT 09/M03 A3029 RMK A01 T00901030  RH  043%=      5-min Rain = 0
KWT1 191912Z 34013KT 09/M03 A303 RMK A01 T00891030  RH  043%=      5-min Rain = 0
KWT1 191913Z 32012G17KT 09/M02 A303 RMK A01 T00921024  RH  044%=      5-min Rain = 0
KWT1 191914Z 32015G20KT 10/M03 A3029 RMK A01 T00951026  RH  043%=      5-min Rain = 0
KWT1 191915Z 35016KT 09/M03 A3029 RMK A01 T00941027  RH  042%=      5-min Rain = 0
KWT1 191916Z 33015KT 09/M03 A3029 RMK A01 T00931028  RH  042%=      5-min Rain = 0
KWT1 191917Z 34019KT 09/M03 A3029 RMK A01 T00921029  RH  042%=      5-min Rain = 0
KWT1 191918Z 33016KT 09/M03 A3029 RMK A01 T00931029  RH  042%=      5-min Rain = 0
KWT1 191919Z 34016KT 09/M03 A3029 RMK A01 T00941029  RH  042%=      5-min Rain = 0
KWT1 191920Z 34019G25KT 10/M03 A3029 RMK A01 T00951030  RH  041%=      5-min Rain = 0
KWT1 191921Z 34019KT 10/M03 A3029 RMK A01 T00951030  RH  041%=      5-min Rain = 0
KWT1 191922Z 34016G21KT 09/M03 A3029 RMK A01 T00931032  RH  041%=      5-min Rain = 0
KWT1 191923Z 34018KT 09/M03 A3029 RMK A01 T00921031  RH  042%=      5-min Rain = 0
KWT1 191924Z 34016KT 09/M03 A3029 RMK A01 T00921030  RH  042%=      5-min Rain = 0
KWT1 191925Z 33015KT 09/M03 A3029 RMK A01 T00931029  RH  042%=      5-min Rain = 0
KWT1 191926Z 33015KT 09/M03 A3028 RMK A01 T00941029  RH  042%=      5-min Rain = 0
KWT1 191927Z 34018KT 10/M03 A3028 RMK A01 T00951027  RH  042%=      5-min Rain = 0
KWT1 191928Z 33017KT 10/M03 A3028 RMK A01 T00961031  RH  041%=      5-min Rain = 0
KWT1 191929Z 34016KT 09/M03 A3028 RMK A01 T00931032  RH  041%=      5-min Rain = 0
KWT1 191930Z 34018KT 09/M03 A3028 RMK A01 T00941030  RH  041%=      5-min Rain = 0
KWT1 191931Z 34018KT 09/M03 A3028 RMK A01 T00941031  RH  041%=      5-min Rain = 0
KWT1 191932Z 34017KT 09/M03 A3028 RMK A01 T00941031  RH  041%=      5-min Rain = 0
KWT1 191933Z 34018KT 09/M03 A3028 RMK A01 T00941032  RH  041%=      5-min Rain = 0
KWT1 191934Z 34016G21KT 10/M03 A3028 RMK A01 T00951032  RH  041%=      5-min Rain = 0
KWT1 191935Z 33019G24KT 10/M03 A3028 RMK A01 T00971029  RH  041%=      5-min Rain = 0
KWT1 191936Z 33018KT 10/M03 A3028 RMK A01 T00971033  RH  040%=      5-min Rain = 0
KWT1 191937Z 35015KT 10/M03 A3028 RMK A01 T00951032  RH  041%=      5-min Rain = 0
KWT1 191938Z 33017KT 10/M03 A3028 RMK A01 T00971029  RH  041%=      5-min Rain = 0
KWT1 191939Z 33016G21KT 10/M03 A3028 RMK A01 T00981031  RH  040%=      5-min Rain = 0
KWT1 191940Z 33018KT 10/M03 A3028 RMK A01 T00981029  RH  041%=      5-min Rain = 0
KWT1 191941Z 33020KT 10/M03 A3028 RMK A01 T00991030  RH  040%=      5-min Rain = 0
KWT1 191942Z 33020KT 10/M03 A3028 RMK A01 T00991031  RH  040%=      5-min Rain = 0
KWT1 191943Z 34018KT 10/M03 A3028 RMK A01 T00981032  RH  040%=      5-min Rain = 0
KWT1 191944Z 33018KT 10/M03 A3028 RMK A01 T00981031  RH  040%=      5-min Rain = 0
KWT1 191945Z 33020G25KT 10/M03 A3028 RMK A01 T00961033  RH  040%=      5-min Rain = 0
KWT1 191946Z 34020G25KT 09/M03 A3028 RMK A01 T00941033  RH  041%=      5-min Rain = 0
KWT1 191947Z 33019KT 09/M03 A3028 RMK A01 T00941032  RH  041%=      5-min Rain = 0
KWT1 191948Z 33020G25KT 10/M03 A3028 RMK A01 T00961031  RH  041%=      5-min Rain = 0
KWT1 191949Z 33020KT 10/M03 A3027 RMK A01 T00961033  RH  040%=      5-min Rain = 0
KWT1 191950Z 34020KT 10/M03 A3028 RMK A01 T00961031  RH  041%=      5-min Rain = 0
KWT1 191951Z 34017KT 10/M03 A3028 RMK A01 T00981032  RH  040%=      5-min Rain = 0
KWT1 191952Z 35015G21KT 10/M03 A3028 RMK A01 T00981030  RH  040%=      5-min Rain = 0
KWT1 191953Z 35019KT 10/M03 A3028 RMK A01 T01001029  RH  040%=      5-min Rain = 0
KWT1 191954Z 35018KT 10/M03 A3028 RMK A01 T01001030  RH  040%=      5-min Rain = 0
KWT1 191955Z 36013KT 10/M03 A3028 RMK A01 T00991029  RH  040%=      5-min Rain = 0
KWT1 191956Z 34016KT 10/M03 A3028 RMK A01 T01021027  RH  040%=      5-min Rain = 0
KWT1 191957Z 33017KT 10/M03 A3028 RMK A01 T01041025  RH  040%=      5-min Rain = 0
KWT1 191958Z 32019KT 10/M03 A3028 RMK A01 T01041029  RH  039%=      5-min Rain = 0
KWT1 191959Z 32019KT 10/M03 A3028 RMK A01 T01031030  RH  039%=      5-min Rain = 0
KWT1 192000Z 33016G21KT 10/M03 A3028 RMK A01 T01011031  RH  039%=      5-min Rain = 0
KWT1 192001Z 33015KT 10/M03 A3028 RMK A01 T01011029  RH  040%=      5-min Rain = 0
KWT1 192002Z 32015KT 10/M03 A3028 RMK A01 T01021030  RH  039%=      5-min Rain = 0
KWT1 192003Z 33016KT 10/M03 A3028 RMK A01 T01021029  RH  040%=      5-min Rain = 0
KWT1 192004Z 33014KT 10/M03 A3028 RMK A01 T01011030  RH  040%=      5-min Rain = 0
KWT1 192005Z 34019KT 10/M03 A3028 RMK A01 T01021029  RH  040%=      5-min Rain = 0
KWT1 192006Z 34020KT 10/M03 A3028 RMK A01 T01031031  RH  039%=      5-min Rain = 0
KWT1 192007Z 34019G27KT 10/M03 A3028 RMK A01 T01031030  RH  039%=      5-min Rain = 0
KWT1 192008Z 33019KT 11/M03 A3028 RMK A01 T01081027  RH  039%=      5-min Rain = 0
KWT1 192009Z 35021KT 11/M03 A3028 RMK A01 T01081029  RH  038%=      5-min Rain = 0
KWT1 192010Z 33020KT 11/M03 A3028 RMK A01 T01071031  RH  038%=      5-min Rain = 0
KWT1 192011Z 33017KT 11/M03 A3028 RMK A01 T01051031  RH  038%=      5-min Rain = 0
KWT1 192012Z 34015KT 10/M03 A3028 RMK A01 T01041031  RH  039%=      5-min Rain = 0
KWT1 192013Z 35016G23KT 11/M03 A3028 RMK A01 T01071027  RH  039%=      5-min Rain = 0
KWT1 192014Z 34017G22KT 11/M03 A3028 RMK A01 T01091028  RH  038%=      5-min Rain = 0
KWT1 192015Z 34018KT 11/M03 A3028 RMK A01 T01091028  RH  038%=      5-min Rain = 0
KWT1 192016Z 34016KT 11/M03 A3028 RMK A01 T01071030  RH  038%=      5-min Rain = 0
KWT1 192017Z 33017KT 11/M03 A3027 RMK A01 T01071030  RH  038%=      5-min Rain = 0
KWT1 192018Z 33016KT 11/M03 A3027 RMK A01 T01051030  RH  039%=      5-min Rain = 0
KWT1 192019Z 34017KT 11/M03 A3027 RMK A01 T01051029  RH  039%=      5-min Rain = 0
KWT1 192020Z 33018G23KT 11/M03 A3027 RMK A01 T01051029  RH  039%=      5-min Rain = 0
KWT1 192021Z 33018KT 11/M03 A3027 RMK A01 T01061031  RH  038%=      5-min Rain = 0
KWT1 192022Z 33018KT 11/M03 A3027 RMK A01 T01051031  RH  038%=      5-min Rain = 0
KWT1 192023Z 34016KT 11/M03 A3027 RMK A01 T01061028  RH  039%=      5-min Rain = 0
KWT1 192024Z 34016KT 11/M03 A3027 RMK A01 T01081026  RH  039%=      5-min Rain = 0
KWT1 192025Z 34017KT 11/M03 A3027 RMK A01 T01081026  RH  039%=      5-min Rain = 0
KWT1 192026Z 33019KT 11/M03 A3027 RMK A01 T01091028  RH  038%=      5-min Rain = 0
KWT1 192027Z 34016KT 11/M03 A3027 RMK A01 T01061029  RH  039%=      5-min Rain = 0
KWT1 192028Z 32016KT 11/M03 A3027 RMK A01 T01061028  RH  039%=      5-min Rain = 0
KWT1 192029Z 33014KT 11/M03 A3027 RMK A01 T01061028  RH  039%=      5-min Rain = 0
KWT1 192030Z 33013KT 11/M03 A3027 RMK A01 T01081025  RH  039%=      5-min Rain = 0
KWT1 192031Z 32015KT 11/M02 A3027 RMK A01 T01111024  RH  039%=      5-min Rain = 0
KWT1 192032Z 32019KT 11/M03 A3027 RMK A01 T01111027  RH  038%=      5-min Rain = 0
KWT1 192033Z 33016KT 11/M03 A3027 RMK A01 T01091029  RH  038%=      5-min Rain = 0
KWT1 192034Z 32017KT 11/M03 A3027 RMK A01 T01091027  RH  038%=      5-min Rain = 0
KWT1 192035Z 32016KT 11/M03 A3027 RMK A01 T01091027  RH  038%=      5-min Rain = 0
KWT1 192036Z 33018G23KT 11/M03 A3027 RMK A01 T01101027  RH  038%=      5-min Rain = 0
KWT1 192037Z 34019KT 11/M03 A3027 RMK A01 T01101027  RH  038%=      5-min Rain = 0
KWT1 192038Z 34016KT 11/M03 A3027 RMK A01 T01101028  RH  038%=      5-min Rain = 0
KWT1 192039Z 33016KT 11/M03 A3027 RMK A01 T01101027  RH  038%=      5-min Rain = 0
KWT1 192040Z 33018KT 11/M03 A3026 RMK A01 T01111026  RH  038%=      5-min Rain = 0
KWT1 192041Z 32018KT 11/M03 A3026 RMK A01 T01101028  RH  038%=      5-min Rain = 0
KWT1 192042Z 31017KT 11/M03 A3026 RMK A01 T01101027  RH  038%=      5-min Rain = 0
KWT1 192043Z 32019KT 11/M03 A3026 RMK A01 T01111026  RH  038%=      5-min Rain = 0
KWT1 192044Z 32015KT 11/M03 A3026 RMK A01 T01101028  RH  038%=      5-min Rain = 0
KWT1 192045Z 33015KT 11/M03 A3026 RMK A01 T01081028  RH  039%=      5-min Rain = 0
KWT1 192046Z 33016KT 11/M02 A3026 RMK A01 T01101024  RH  039%=      5-min Rain = 0
KWT1 192047Z 32014G19KT 11/M03 A3026 RMK A01 T01101025  RH  039%=      5-min Rain = 0
KWT1 192048Z 33015KT 11/M02 A3026 RMK A01 T01101024  RH  039%=      5-min Rain = 0
KWT1 192049Z 33013G18KT 11/M02 A3026 RMK A01 T01101024  RH  039%=      5-min Rain = 0
KWT1 192050Z 33013KT 11/M02 A3026 RMK A01 T01111024  RH  039%=      5-min Rain = 0
KWT1 192051Z 34012KT 11/M02 A3026 RMK A01 T01111024  RH  039%=      5-min Rain = 0
KWT1 192052Z 32011KT 11/M02 A3026 RMK A01 T01141020  RH  039%=      5-min Rain = 0
KWT1 192053Z 32017KT 12/M02 A3026 RMK A01 T01171021  RH  038%=      5-min Rain = 0
KWT1 192054Z 32016KT 11/M03 A3026 RMK A01 T01131028  RH  037%=      5-min Rain = 0
KWT1 192055Z 32015KT 11/M03 A3026 RMK A01 T01111026  RH  038%=      5-min Rain = 0
KWT1 192056Z 32011KT 11/M03 A3026 RMK A01 T01101027  RH  038%=      5-min Rain = 0
KWT1 192057Z 32015KT 11/M02 A3026 RMK A01 T01121023  RH  039%=      5-min Rain = 0
KWT1 192058Z 33015KT 11/M02 A3026 RMK A01 T01131024  RH  038%=      5-min Rain = 0
KWT1 192059Z 33013KT 11/M03 A3026 RMK A01 T01111027  RH  038%=      5-min Rain = 0
KWT1 192100Z 32014KT 11/M03 A3026 RMK A01 T01101026  RH  038%=      5-min Rain = 0
KWT1 192101Z 33012KT 11/M03 A3026 RMK A01 T01101026  RH  039%=      5-min Rain = 0
KWT1 192102Z 35013KT 11/M02 A3026 RMK A01 T01121023  RH  039%=      5-min Rain = 0
KWT1 192103Z 33010KT 11/M02 A3026 RMK A01 T01141021  RH  039%=      5-min Rain = 0
KWT1 192104Z 35009KT 12/M02 A3026 RMK A01 T01171019  RH  039%=      5-min Rain = 0
KWT1 192105Z 33012KT 12/M02 A3026 RMK A01 T01201018  RH  038%=      5-min Rain = 0
KWT1 192106Z 33015KT 12/M02 A3026 RMK A01 T01211021  RH  037%=      5-min Rain = 0
KWT1 192107Z 34014KT 12/M03 A3026 RMK A01 T01201025  RH  036%=      5-min Rain = 0
KWT1 192108Z 35014KT 12/M03 A3026 RMK A01 T01211025  RH  036%=      5-min Rain = 0
KWT1 192109Z 35012KT 12/M03 A3026 RMK A01 T01221025  RH  036%=      5-min Rain = 0
KWT1 192110Z 34013KT 12/M02 A3026 RMK A01 T01231023  RH  036%=      5-min Rain = 0
KWT1 192111Z 34015KT 12/M02 A3026 RMK A01 T01241024  RH  035%=      5-min Rain = 0
KWT1 192112Z 33016KT 12/M03 A3026 RMK A01 T01221027  RH  035%=      5-min Rain = 0
KWT1 192113Z 32019KT 12/M03 A3025 RMK A01 T01211028  RH  035%=      5-min Rain = 0
KWT1 192114Z 32020KT 12/M03 A3026 RMK A01 T01201033  RH  034%=      5-min Rain = 0
KWT1 192115Z 33018G23KT 12/M03 A3025 RMK A01 T01191034  RH  034%=      5-min Rain = 0
KWT1 192116Z 33018G24KT 12/M03 A3026 RMK A01 T01191033  RH  035%=      5-min Rain = 0
KWT1 192117Z 34022KT 12/M03 A3026 RMK A01 T01191033  RH  034%=      5-min Rain = 0
KWT1 192118Z 34020G25KT 12/M03 A3026 RMK A01 T01181034  RH  034%=      5-min Rain = 0
KWT1 192119Z 34020KT 12/M03 A3026 RMK A01 T01181033  RH  035%=      5-min Rain = 0
KWT1 192120Z 34018KT 12/M03 A3026 RMK A01 T01191032  RH  035%=      5-min Rain = 0
KWT1 192121Z 34017KT 12/M03 A3026 RMK A01 T01181033  RH  035%=      5-min Rain = 0
KWT1 192122Z 35018KT 12/M03 A3026 RMK A01 T01181032  RH  035%=      5-min Rain = 0
KWT1 192123Z 33019KT 12/M03 A3026 RMK A01 T01191031  RH  035%=      5-min Rain = 0
KWT1 192124Z 34018KT 12/M03 A3026 RMK A01 T01181033  RH  035%=      5-min Rain = 0
KWT1 192125Z 32017KT 12/M03 A3026 RMK A01 T01181033  RH  035%=      5-min Rain = 0
KWT1 192126Z 33017G22KT 12/M03 A3026 RMK A01 T01191033  RH  034%=      5-min Rain = 0
KWT1 192127Z 33017KT 12/M03 A3026 RMK A01 T01191032  RH  035%=      5-min Rain = 0
KWT1 192128Z 33014KT 12/M03 A3026 RMK A01 T01221029  RH  035%=      5-min Rain = 0
KWT1 192129Z 32016KT 12/M03 A3026 RMK A01 T01231029  RH  035%=      5-min Rain = 0
KWT1 192130Z 32017KT 12/M03 A3026 RMK A01 T01241030  RH  034%=      5-min Rain = 0
KWT1 192131Z 32018G23KT 12/M03 A3025 RMK A01 T01211032  RH  034%=      5-min Rain = 0
KWT1 192132Z 32018KT 12/M03 A3026 RMK A01 T01181034  RH  035%=      5-min Rain = 0
KWT1 192133Z 32017KT 12/M03 A3026 RMK A01 T01171032  RH  035%=      5-min Rain = 0
KWT1 192134Z 33018G23KT 12/M03 A3026 RMK A01 T01171032  RH  035%=      5-min Rain = 0
KWT1 192135Z 32019KT 12/M03 A3026 RMK A01 T01181033  RH  035%=      5-min Rain = 0
KWT1 192136Z 33021G26KT 12/M04 A3026 RMK A01 T01171035  RH  034%=      5-min Rain = 0
KWT1 192137Z 33017KT 12/M04 A3026 RMK A01 T01161035  RH  035%=      5-min Rain = 0
KWT1 192138Z 33016KT 12/M03 A3026 RMK A01 T01181032  RH  035%=      5-min Rain = 0
KWT1 192139Z 34018KT 12/M03 A3026 RMK A01 T01191032  RH  035%=      5-min Rain = 0
KWT1 192140Z 32020KT 12/M03 A3026 RMK A01 T01181034  RH  034%=      5-min Rain = 0
KWT1 192141Z 33018KT 12/M04 A3026 RMK A01 T01151036  RH  035%=      5-min Rain = 0
KWT1 192142Z 33019KT 12/M03 A3026 RMK A01 T01151034  RH  035%=      5-min Rain = 0
KWT1 192143Z 33018G23KT 12/M03 A3026 RMK A01 T01171032  RH  035%=      5-min Rain = 0
KWT1 192144Z 33020KT 12/M03 A3025 RMK A01 T01181034  RH  035%=      5-min Rain = 0
KWT1 192145Z 33017G23KT 12/M04 A3026 RMK A01 T01161035  RH  035%=      5-min Rain = 0
KWT1 192146Z 33018KT 12/M03 A3026 RMK A01 T01171033  RH  035%=      5-min Rain = 0
KWT1 192147Z 32015KT 12/M03 A3026 RMK A01 T01161034  RH  035%=      5-min Rain = 0
KWT1 192148Z 32014KT 12/M03 A3026 RMK A01 T01161032  RH  035%=      5-min Rain = 0
KWT1 192149Z 32019KT 12/M03 A3026 RMK A01 T01201029  RH  035%=      5-min Rain = 0
KWT1 192150Z 32018KT 12/M03 A3026 RMK A01 T01201031  RH  035%=      5-min Rain = 0
KWT1 192151Z 33018G23KT 12/M03 A3026 RMK A01 T01201031  RH  035%=      5-min Rain = 0
KWT1 192152Z 33019G24KT 12/M03 A3026 RMK A01 T01191032  RH  035%=      5-min Rain = 0
KWT1 192153Z 33016KT 12/M03 A3026 RMK A01 T01181032  RH  035%=      5-min Rain = 0
KWT1 192154Z 32019KT 12/M03 A3026 RMK A01 T01181032  RH  035%=      5-min Rain = 0
KWT1 192155Z 33018KT 12/M03 A3026 RMK A01 T01181032  RH  035%=      5-min Rain = 0
KWT1 192156Z 33020KT 12/M03 A3025 RMK A01 T01191033  RH  034%=      5-min Rain = 0
KWT1 192157Z 33017KT 12/M03 A3026 RMK A01 T01171034  RH  034%=      5-min Rain = 0
KWT1 192158Z 34018KT 12/M03 A3026 RMK A01 T01171034  RH  035%=      5-min Rain = 0
KWT1 192159Z 34017KT 12/M03 A3026 RMK A01 T01181033  RH  035%=      5-min Rain = 0
KWT1 192200Z 34018G23KT 12/M03 A3026 RMK A01 T01201030  RH  035%=      5-min Rain = 0
KWT1 192201Z 34019KT 12/M03 A3026 RMK A01 T01201033  RH  034%=      5-min Rain = 0
KWT1 192202Z 35018KT 12/M03 A3026 RMK A01 T01181033  RH  034%=      5-min Rain = 0
KWT1 192203Z 35019G25KT 12/M03 A3026 RMK A01 T01191032  RH  035%=      5-min Rain = 0
KWT1 192204Z 34017G23KT 12/M03 A3025 RMK A01 T01201032  RH  035%=      5-min Rain = 0
KWT1 192205Z 34018G24KT 12/M03 A3026 RMK A01 T01201031  RH  035%=      5-min Rain = 0
KWT1 192206Z 33018G23KT 12/M03 A3026 RMK A01 T01201032  RH  034%=      5-min Rain = 0
KWT1 192207Z 33016KT 12/M03 A3025 RMK A01 T01191034  RH  034%=      5-min Rain = 0
KWT1 192208Z 34016G21KT 12/M03 A3026 RMK A01 T01181032  RH  035%=      5-min Rain = 0
KWT1 192209Z 34017KT 12/M03 A3025 RMK A01 T01191032  RH  035%=      5-min Rain = 0
KWT1 192210Z 35019KT 12/M03 A3026 RMK A01 T01191032  RH  035%=      5-min Rain = 0
KWT1 192211Z 35017KT 12/M03 A3026 RMK A01 T01191032  RH  035%=      5-min Rain = 0
KWT1 192212Z 35017KT 12/M03 A3026 RMK A01 T01191033  RH  035%=      5-min Rain = 0
KWT1 192213Z 35016KT 12/M03 A3026 RMK A01 T01181033  RH  035%=      5-min Rain = 0
KWT1 192214Z 34011G17KT 12/M03 A3026 RMK A01 T01191030  RH  035%=      5-min Rain = 0
KWT1 192215Z 34017KT 12/M03 A3026 RMK A01 T01211029  RH  035%=      5-min Rain = 0
KWT1 192216Z 34017KT 12/M03 A3026 RMK A01 T01211032  RH  034%=      5-min Rain = 0
KWT1 192217Z 34016KT 12/M03 A3026 RMK A01 T01201031  RH  035%=      5-min Rain = 0
KWT1 192218Z 34016KT 12/M03 A3026 RMK A01 T01201032  RH  034%=      5-min Rain = 0
KWT1 192219Z 34016G22KT 12/M03 A3026 RMK A01 T01211032  RH  034%=      5-min Rain = 0
KWT1 192220Z 33018G25KT 12/M03 A3025 RMK A01 T01211031  RH  034%=      5-min Rain = 0
KWT1 192221Z 33017KT 12/M03 A3025 RMK A01 T01201033  RH  034%=      5-min Rain = 0
KWT1 192222Z 35017KT 12/M03 A3026 RMK A01 T01191033  RH  034%=      5-min Rain = 0
KWT1 192223Z 34016KT 12/M03 A3026 RMK A01 T01191032  RH  035%=      5-min Rain = 0
KWT1 192224Z 34019G24KT 12/M03 A3026 RMK A01 T01201031  RH  035%=      5-min Rain = 0
KWT1 192225Z 34017KT 12/M03 A3026 RMK A01 T01201031  RH  035%=      5-min Rain = 0
KWT1 192226Z 34017KT 12/M03 A3026 RMK A01 T01201031  RH  035%=      5-min Rain = 0
KWT1 192227Z 34015G20KT 12/M03 A3026 RMK A01 T01201033  RH  034%=      5-min Rain = 0
KWT1 192228Z 34013KT 12/M03 A3026 RMK A01 T01191032  RH  035%=      5-min Rain = 0
KWT1 192229Z 34013KT 12/M03 A3026 RMK A01 T01201032  RH  035%=      5-min Rain = 0
KWT1 192230Z 35012KT 12/M03 A3026 RMK A01 T01201032  RH  034%=      5-min Rain = 0
KWT1 192231Z 35011KT 12/M03 A3026 RMK A01 T01211031  RH  034%=      5-min Rain = 0
KWT1 192232Z 34013G18KT 12/M03 A3026 RMK A01 T01221031  RH  034%=      5-min Rain = 0
KWT1 192233Z 34015KT 12/M03 A3026 RMK A01 T01221031  RH  034%=      5-min Rain = 0
KWT1 192234Z 34015G20KT 12/M03 A3026 RMK A01 T01211033  RH  034%=      5-min Rain = 0
KWT1 192235Z 33019KT 12/M03 A3026 RMK A01 T01201034  RH  034%=      5-min Rain = 0
KWT1 192236Z 33017KT 12/M04 A3026 RMK A01 T01181036  RH  034%=      5-min Rain = 0
KWT1 192237Z 33017KT 12/M04 A3026 RMK A01 T01181035  RH  034%=      5-min Rain = 0
KWT1 192238Z 34016KT 12/M04 A3026 RMK A01 T01171035  RH  034%=      5-min Rain = 0
KWT1 192239Z 34015KT 12/M04 A3026 RMK A01 T01171035  RH  034%=      5-min Rain = 0
KWT1 192240Z 34012KT 12/M04 A3026 RMK A01 T01171035  RH  034%=      5-min Rain = 0
KWT1 192241Z 35012KT 12/M04 A3026 RMK A01 T01171035  RH  034%=      5-min Rain = 0
KWT1 192242Z 34014KT 12/M03 A3026 RMK A01 T01181034  RH  034%=      5-min Rain = 0
KWT1 192243Z 35016KT 12/M03 A3026 RMK A01 T01181034  RH  034%=      5-min Rain = 0
KWT1 192244Z 35016KT 12/M04 A3026 RMK A01 T01181035  RH  034%=      5-min Rain = 0
KWT1 192245Z 35016KT 12/M04 A3026 RMK A01 T01191035  RH  034%=      5-min Rain = 0
KWT1 192246Z 34012KT 12/M04 A3026 RMK A01 T01181035  RH  034%=      5-min Rain = 0
KWT1 192247Z 35016KT 12/M03 A3026 RMK A01 T01181034  RH  034%=      5-min Rain = 0
KWT1 192248Z 35016KT 12/M04 A3026 RMK A01 T01181036  RH  034%=      5-min Rain = 0
KWT1 192249Z 34014KT 12/M04 A3026 RMK A01 T01181035  RH  034%=      5-min Rain = 0
KWT1 192250Z 34014KT 12/M04 A3026 RMK A01 T01181035  RH  034%=      5-min Rain = 0
KWT1 192251Z 35015KT 12/M04 A3027 RMK A01 T01171036  RH  034%=      5-min Rain = 0
KWT1 192252Z 35010KT 12/M04 A3027 RMK A01 T01171036  RH  034%=      5-min Rain = 0
KWT1 192253Z 34010KT 12/M04 A3026 RMK A01 T01171035  RH  034%=      5-min Rain = 0
KWT1 192254Z 34012KT 12/M04 A3026 RMK A01 T01181035  RH  034%=      5-min Rain = 0
KWT1 192255Z 34015KT 12/M04 A3026 RMK A01 T01181036  RH  034%=      5-min Rain = 0
KWT1 192256Z 34013KT 12/M04 A3026 RMK A01 T01171035  RH  034%=      5-min Rain = 0
KWT1 192257Z 34014KT 12/M03 A3026 RMK A01 T01171034  RH  034%=      5-min Rain = 0
KWT1 192258Z 34012KT 12/M03 A3026 RMK A01 T01181034  RH  035%=      5-min Rain = 0
KWT1 192259Z 33013KT 12/M04 A3026 RMK A01 T01181035  RH  034%=      5-min Rain = 0
KWT1 192300Z 34011KT 12/M04 A3026 RMK A01 T01171035  RH  034%=      5-min Rain = 0
KWT1 192301Z 34012KT 12/M03 A3026 RMK A01 T01171034  RH  035%=      5-min Rain = 0
KWT1 192302Z 34012KT 12/M03 A3026 RMK A01 T01171034  RH  034%=      5-min Rain = 0
KWT1 192303Z 35014KT 12/M03 A3026 RMK A01 T01171034  RH  035%=      5-min Rain = 0
KWT1 192304Z 34016KT 12/M04 A3026 RMK A01 T01171036  RH  034%=      5-min Rain = 0
KWT1 192305Z 34014KT 12/M04 A3026 RMK A01 T01161037  RH  034%=      5-min Rain = 0
KWT1 192306Z 36013KT 12/M04 A3027 RMK A01 T01151037  RH  034%=      5-min Rain = 0
KWT1 192307Z 35011KT 12/M04 A3027 RMK A01 T01151036  RH  034%=      5-min Rain = 0
KWT1 192308Z 35010KT 12/M04 A3027 RMK A01 T01151036  RH  035%=      5-min Rain = 0
KWT1 192309Z 35010KT 12/M04 A3027 RMK A01 T01151035  RH  035%=      5-min Rain = 0
KWT1 192310Z 34012KT 12/M04 A3027 RMK A01 T01151035  RH  035%=      5-min Rain = 0
KWT1 192311Z 34013KT 12/M04 A3026 RMK A01 T01151036  RH  035%=      5-min Rain = 0
KWT1 192312Z 36011KT 12/M04 A3027 RMK A01 T01151035  RH  035%=      5-min Rain = 0
KWT1 192313Z 35013KT 12/M04 A3027 RMK A01 T01151035  RH  035%=      5-min Rain = 0
KWT1 192314Z 34011KT 12/M04 A3027 RMK A01 T01151036  RH  035%=      5-min Rain = 0
KWT1 192315Z 35011KT 11/M04 A3027 RMK A01 T01141036  RH  035%=      5-min Rain = 0
KWT1 192316Z 36013KT 11/M04 A3027 RMK A01 T01141036  RH  035%=      5-min Rain = 0
KWT1 192317Z 00014KT 11/M04 A3027 RMK A01 T01141036  RH  035%=      5-min Rain = 0
KWT1 192318Z 35013KT 11/M04 A3027 RMK A01 T01131037  RH  035%=      5-min Rain = 0
KWT1 192319Z 00011KT 11/M04 A3027 RMK A01 T01131036  RH  035%=      5-min Rain = 0
KWT1 192320Z 35012KT 11/M04 A3027 RMK A01 T01121037  RH  035%=      5-min Rain = 0
KWT1 192321Z 35012KT 11/M04 A3027 RMK A01 T01121037  RH  035%=      5-min Rain = 0
KWT1 192322Z 35012KT 11/M04 A3027 RMK A01 T01121037  RH  035%=      5-min Rain = 0
KWT1 192323Z 35010KT 11/M04 A3027 RMK A01 T01121037  RH  035%=      5-min Rain = 0
KWT1 192324Z 36010KT 11/M04 A3026 RMK A01 T01121037  RH  035%=      5-min Rain = 0
KWT1 192325Z 35012KT 11/M04 A3027 RMK A01 T01111036  RH  035%=      5-min Rain = 0
KWT1 192326Z 35010KT 11/M04 A3027 RMK A01 T01111037  RH  035%=      5-min Rain = 0
KWT1 192327Z 35010KT 11/M04 A3027 RMK A01 T01121037  RH  035%=      5-min Rain = 0
KWT1 192328Z 35010KT 11/M04 A3027 RMK A01 T01111036  RH  035%=      5-min Rain = 0
KWT1 192329Z 36011KT 11/M04 A3026 RMK A01 T01111036  RH  035%=      5-min Rain = 0
KWT1 192330Z 36011KT 11/M04 A3027 RMK A01 T01111037  RH  035%=      5-min Rain = 0
KWT1 192331Z 35009KT 11/M04 A3027 RMK A01 T01101037  RH  035%=      5-min Rain = 0
KWT1 192332Z 35008KT 11/M04 A3027 RMK A01 T01101037  RH  035%=      5-min Rain = 0
KWT1 192333Z 35006KT 11/M04 A3027 RMK A01 T01101037  RH  036%=      5-min Rain = 0
KWT1 192334Z 35008KT 11/M04 A3027 RMK A01 T01091036  RH  036%=      5-min Rain = 0
KWT1 192335Z 35008KT 11/M04 A3027 RMK A01 T01091037  RH  036%=      5-min Rain = 0
KWT1 192336Z 00007KT 11/M04 A3027 RMK A01 T01091036  RH  036%=      5-min Rain = 0
KWT1 192337Z 35008KT 11/M04 A3027 RMK A01 T01081037  RH  036%=      5-min Rain = 0
KWT1 192338Z 01008KT 11/M04 A3027 RMK A01 T01081036  RH  036%=      5-min Rain = 0
KWT1 192339Z 36009KT 11/M04 A3027 RMK A01 T01071036  RH  036%=      5-min Rain = 0
KWT1 192340Z 36007KT 11/M04 A3027 RMK A01 T01071036  RH  036%=      5-min Rain = 0
KWT1 192341Z 35009KT 11/M04 A3027 RMK A01 T01061036  RH  037%=      5-min Rain = 0
KWT1 192342Z 35008KT 11/M04 A3027 RMK A01 T01061037  RH  037%=      5-min Rain = 0
KWT1 192343Z 35008KT 11/M04 A3027 RMK A01 T01061036  RH  037%=      5-min Rain = 0
KWT1 192344Z 36007KT 11/M04 A3027 RMK A01 T01051037  RH  037%=      5-min Rain = 0
KWT1 192345Z 35010KT 11/M04 A3026 RMK A01 T01051037  RH  037%=      5-min Rain = 0
KWT1 192346Z 35009KT 10/M04 A3026 RMK A01 T01041038  RH  037%=      5-min Rain = 0
KWT1 192347Z 35008KT 11/M04 A3026 RMK A01 T01051038  RH  037%=      5-min Rain = 0
KWT1 192348Z 35007KT 10/M04 A3026 RMK A01 T01041038  RH  037%=      5-min Rain = 0
KWT1 192349Z 35008KT 10/M04 A3026 RMK A01 T01031038  RH  037%=      5-min Rain = 0
KWT1 192350Z 01008KT 10/M04 A3026 RMK A01 T01021038  RH  037%=      5-min Rain = 0
KWT1 192351Z 36007KT 10/M04 A3026 RMK A01 T01021038  RH  037%=      5-min Rain = 0
KWT1 192352Z 36008KT 10/M04 A3026 RMK A01 T01021039  RH  037%=      5-min Rain = 0
KWT1 192353Z 36008KT 10/M04 A3026 RMK A01 T01011039  RH  037%=      5-min Rain = 0
KWT1 192354Z 00007KT 10/M04 A3026 RMK A01 T01011039  RH  037%=      5-min Rain = 0
KWT1 192355Z 36007KT 10/M04 A3026 RMK A01 T01001039  RH  037%=      5-min Rain = 0
KWT1 192356Z 01008KT 10/M04 A3026 RMK A01 T00991039  RH  038%=      5-min Rain = 0
KWT1 192357Z 00008KT 10/M04 A3026 RMK A01 T00981039  RH  038%=      5-min Rain = 0
KWT1 192358Z 36009KT 10/M04 A3026 RMK A01 T00971039  RH  038%=      5-min Rain = 0
KWT1 192359Z 00009KT 10/M04 A3026 RMK A01 T00971039  RH  038%=      5-min Rain = 0
KWT1 200000Z 36008KT 10/M04 A3026 RMK A01 T00971039  RH  038%=      5-min Rain = 0
KWT1 200001Z 01007KT 10/M04 A3026 RMK A01 T00961039  RH  038%=      5-min Rain = 0
KWT1 200002Z 01007KT 10/M04 A3026 RMK A01 T00951039  RH  039%=      5-min Rain = 0
KWT1 200003Z 01007KT 09/M04 A3026 RMK A01 T00941039  RH  039%=      5-min Rain = 0
KWT1 200004Z 01007KT 09/M04 A3026 RMK A01 T00931039  RH  039%=      5-min Rain = 0
KWT1 200005Z 01008KT 09/M04 A3026 RMK A01 T00921039  RH  039%=      5-min Rain = 0
KWT1 200006Z 01008KT 09/M04 A3026 RMK A01 T00921039  RH  039%=      5-min Rain = 0
KWT1 200007Z 00007KT 09/M04 A3026 RMK A01 T00921039  RH  039%=      5-min Rain = 0
KWT1 200008Z 00008KT 09/M04 A3026 RMK A01 T00911039  RH  040%=      5-min Rain = 0
KWT1 200009Z 00008KT 09/M04 A3026 RMK A01 T00911039  RH  040%=      5-min Rain = 0
KWT1 200010Z 01009KT 09/M04 A3026 RMK A01 T00911039  RH  040%=      5-min Rain = 0
KWT1 200011Z 01009KT 09/M04 A3026 RMK A01 T00911039  RH  040%=      5-min Rain = 0
KWT1 200012Z 01009KT 09/M04 A3027 RMK A01 T00911039  RH  040%=      5-min Rain = 0
KWT1 200013Z 01009KT 09/M04 A3027 RMK A01 T00911039  RH  040%=      5-min Rain = 0
KWT1 200014Z 00009KT 09/M04 A3027 RMK A01 T00921039  RH  039%=      5-min Rain = 0
KWT1 200015Z 00009KT 09/M04 A3027 RMK A01 T00931039  RH  039%=      5-min Rain = 0
KWT1 200016Z 36007KT 09/M04 A3027 RMK A01 T00931039  RH  039%=      5-min Rain = 0
KWT1 200017Z 00009KT 09/M04 A3027 RMK A01 T00921040  RH  039%=      5-min Rain = 0
KWT1 200018Z 36007KT 09/M04 A3027 RMK A01 T00911040  RH  039%=      5-min Rain = 0
KWT1 200019Z 36007KT 09/M04 A3027 RMK A01 T00911040  RH  039%=      5-min Rain = 0
KWT1 200020Z 00009KT 09/M04 A3027 RMK A01 T00901040  RH  040%=      5-min Rain = 0
KWT1 200021Z 36008KT 09/M04 A3027 RMK A01 T00901040  RH  040%=      5-min Rain = 0
KWT1 200022Z 00009KT 09/M04 A3027 RMK A01 T00891040  RH  040%=      5-min Rain = 0
KWT1 200023Z 00008KT 09/M04 A3027 RMK A01 T00891040  RH  040%=      5-min Rain = 0
KWT1 200024Z 36009KT 09/M04 A3027 RMK A01 T00881040  RH  040%=      5-min Rain = 0
KWT1 200025Z 36009KT 09/M04 A3027 RMK A01 T00881040  RH  040%=      5-min Rain = 0
KWT1 200026Z 36008KT 09/M04 A3027 RMK A01 T00891040  RH  040%=      5-min Rain = 0
KWT1 200027Z 36009KT 09/M04 A3027 RMK A01 T00891040  RH  040%=      5-min Rain = 0
KWT1 200028Z 36009KT 09/M04 A3027 RMK A01 T00891040  RH  040%=      5-min Rain = 0
KWT1 200029Z 36008KT 09/M04 A3027 RMK A01 T00871040  RH  040%=      5-min Rain = 0
KWT1 200030Z 36009KT 09/M04 A3027 RMK A01 T00861040  RH  041%=      5-min Rain = 0
KWT1 200031Z 36008KT 09/M04 A3027 RMK A01 T00861040  RH  041%=      5-min Rain = 0
KWT1 200032Z 36008KT 09/M04 A3027 RMK A01 T00861040  RH  041%=      5-min Rain = 0
KWT1 200033Z 36008KT 09/M04 A3027 RMK A01 T00851040  RH  041%=      5-min Rain = 0
KWT1 200034Z 36008KT 09/M04 A3027 RMK A01 T00851040  RH  041%=      5-min Rain = 0
KWT1 200035Z 00008KT 08/M04 A3027 RMK A01 T00841040  RH  041%=      5-min Rain = 0
KWT1 200036Z 00007KT 08/M04 A3027 RMK A01 T00841040  RH  041%=      5-min Rain = 0
KWT1 200037Z 00007KT 08/M04 A3027 RMK A01 T00831040  RH  042%=      5-min Rain = 0
KWT1 200038Z 01007KT 08/M04 A3028 RMK A01 T00821040  RH  042%=      5-min Rain = 0
KWT1 200039Z 01005KT 08/M04 A3028 RMK A01 T00811041  RH  042%=      5-min Rain = 0
KWT1 200040Z 01006KT 08/M04 A3028 RMK A01 T00801040  RH  042%=      5-min Rain = 0
KWT1 200041Z 01006KT 08/M04 A3028 RMK A01 T00791041  RH  043%=      5-min Rain = 0
KWT1 200042Z 01006KT 08/M04 A3028 RMK A01 T00781041  RH  043%=      5-min Rain = 0
KWT1 200043Z 01006KT 08/M04 A3028 RMK A01 T00781041  RH  043%=      5-min Rain = 0
KWT1 200044Z 01006KT 08/M04 A3028 RMK A01 T00771041  RH  043%=      5-min Rain = 0
KWT1 200045Z 02006KT 08/M04 A3028 RMK A01 T00761040  RH  043%=      5-min Rain = 0
KWT1 200046Z 02006KT 08/M04 A3028 RMK A01 T00761040  RH  044%=      5-min Rain = 0
KWT1 200047Z 01007KT 08/M04 A3028 RMK A01 T00761040  RH  044%=      5-min Rain = 0
KWT1 200048Z 01006KT 08/M04 A3028 RMK A01 T00751040  RH  044%=      5-min Rain = 0
KWT1 200049Z 01006KT 07/M04 A3028 RMK A01 T00741040  RH  044%=      5-min Rain = 0
KWT1 200050Z 02006KT 07/M04 A3028 RMK A01 T00731040  RH  044%=      5-min Rain = 0
KWT1 200051Z 02006KT 07/M04 A3028 RMK A01 T00721040  RH  045%=      5-min Rain = 0
KWT1 200052Z 02006KT 07/M04 A3028 RMK A01 T00711040  RH  045%=      5-min Rain = 0
KWT1 200053Z 02006KT 07/M04 A3028 RMK A01 T00701040  RH  045%=      5-min Rain = 0
KWT1 200054Z 02006KT 07/M04 A3028 RMK A01 T00701040  RH  045%=      5-min Rain = 0
KWT1 200055Z 02006KT 07/M04 A3028 RMK A01 T00701040  RH  046%=      5-min Rain = 0
KWT1 200056Z 02006KT 07/M04 A3028 RMK A01 T00691040  RH  046%=      5-min Rain = 0
KWT1 200057Z 02006KT 07/M04 A3028 RMK A01 T00691040  RH  046%=      5-min Rain = 0
KWT1 200058Z 02005KT 07/M04 A3028 RMK A01 T00681041  RH  046%=      5-min Rain = 0
KWT1 200059Z 02005KT 07/M04 A3028 RMK A01 T00681041  RH  046%=      5-min Rain = 0
KWT1 200100Z 02006KT 07/M04 A3028 RMK A01 T00671040  RH  046%=      5-min Rain = 0
KWT1 200101Z 02005KT 07/M04 A3028 RMK A01 T00671041  RH  046%=      5-min Rain = 0
KWT1 200102Z 02005KT 07/M04 A3028 RMK A01 T00661040  RH  046%=      5-min Rain = 0
KWT1 200103Z 02005KT 07/M04 A3028 RMK A01 T00661040  RH  046%=      5-min Rain = 0
KWT1 200104Z 02005KT 07/M04 A3028 RMK A01 T00661040  RH  047%=      5-min Rain = 0
KWT1 200105Z 02005KT 07/M04 A3028 RMK A01 T00651040  RH  047%=      5-min Rain = 0
KWT1 200106Z 02004KT 07/M04 A3028 RMK A01 T00651040  RH  047%=      5-min Rain = 0
KWT1 200107Z 02004KT 07/M04 A3028 RMK A01 T00651040  RH  047%=      5-min Rain = 0
KWT1 200108Z 02005KT 06/M04 A3028 RMK A01 T00641040  RH  047%=      5-min Rain = 0
KWT1 200109Z 02005KT 06/M04 A3028 RMK A01 T00641040  RH  047%=      5-min Rain = 0
KWT1 200110Z 03005KT 06/M04 A3028 RMK A01 T00641039  RH  047%=      5-min Rain = 0
KWT1 200111Z 03004KT 06/M04 A3028 RMK A01 T00641039  RH  047%=      5-min Rain = 0
KWT1 200112Z 03004KT 06/M04 A3028 RMK A01 T00631039  RH  048%=      5-min Rain = 0
KWT1 200113Z 04005KT 06/M04 A3028 RMK A01 T00631039  RH  048%=      5-min Rain = 0
KWT1 200114Z 04006KT 06/M04 A3028 RMK A01 T00621039  RH  048%=      5-min Rain = 0
KWT1 200115Z 04005KT 06/M04 A3028 RMK A01 T00611038  RH  049%=      5-min Rain = 0
KWT1 200116Z 04005KT 06/M04 A3028 RMK A01 T00611037  RH  049%=      5-min Rain = 0
KWT1 200117Z 05005KT 06/M04 A3029 RMK A01 T00601037  RH  050%=      5-min Rain = 0
KWT1 200118Z 05005KT 06/M04 A3029 RMK A01 T00591037  RH  050%=      5-min Rain = 0
KWT1 200119Z 05006KT 06/M04 A3029 RMK A01 T00581037  RH  051%=      5-min Rain = 0
KWT1 200120Z 05005KT 06/M04 A3029 RMK A01 T00581037  RH  051%=      5-min Rain = 0
KWT1 200121Z 06005KT 06/M04 A3029 RMK A01 T00571037  RH  051%=      5-min Rain = 0
KWT1 200122Z 06006KT 06/M04 A3029 RMK A01 T00561037  RH  051%=      5-min Rain = 0
KWT1 200123Z 06006KT 06/M04 A3029 RMK A01 T00561037  RH  051%=      5-min Rain = 0
KWT1 200124Z 05006KT 06/M04 A3029 RMK A01 T00561038  RH  051%=      5-min Rain = 0
KWT1 200125Z 05005KT 06/M04 A3029 RMK A01 T00551037  RH  051%=      5-min Rain = 0
KWT1 200126Z 05006KT 06/M04 A3029 RMK A01 T00551038  RH  051%=      5-min Rain = 0
KWT1 200127Z 04005KT 05/M04 A3029 RMK A01 T00541037  RH  052%=      5-min Rain = 0
KWT1 200128Z 04005KT 05/M04 A3029 RMK A01 T00541037  RH  052%=      5-min Rain = 0
KWT1 200129Z 04005KT 05/M04 A3029 RMK A01 T00541037  RH  052%=      5-min Rain = 0
KWT1 200130Z 04005KT 05/M04 A3029 RMK A01 T00541037  RH  052%=      5-min Rain = 0
KWT1 200131Z 04004KT 05/M04 A3029 RMK A01 T00531037  RH  052%=      5-min Rain = 0
KWT1 200132Z 04004KT 05/M04 A3029 RMK A01 T00531037  RH  052%=      5-min Rain = 0
KWT1 200133Z 04005KT 05/M04 A3029 RMK A01 T00531038  RH  052%=      5-min Rain = 0
KWT1 200134Z 04004KT 05/M04 A3029 RMK A01 T00531038  RH  052%=      5-min Rain = 0
KWT1 200135Z 04005KT 05/M04 A3029 RMK A01 T00521038  RH  052%=      5-min Rain = 0
KWT1 200136Z 04005KT 05/M04 A3029 RMK A01 T00521038  RH  052%=      5-min Rain = 0
KWT1 200137Z 04005KT 05/M04 A3029 RMK A01 T00511039  RH  052%=      5-min Rain = 0
KWT1 200138Z 04005KT 05/M04 A3029 RMK A01 T00511038  RH  052%=      5-min Rain = 0
KWT1 200139Z 04006KT 05/M04 A3029 RMK A01 T00501039  RH  053%=      5-min Rain = 0
KWT1 200140Z 04006KT 05/M04 A3029 RMK A01 T00501039  RH  053%=      5-min Rain = 0
KWT1 200141Z 05006KT 05/M04 A3029 RMK A01 T00491038  RH  053%=      5-min Rain = 0
KWT1 200142Z 05006KT 05/M04 A3029 RMK A01 T00491038  RH  053%=      5-min Rain = 0
KWT1 200143Z 04006KT 05/M04 A3029 RMK A01 T00491038  RH  054%=      5-min Rain = 0
KWT1 200144Z 04006KT 05/M04 A3029 RMK A01 T00491037  RH  054%=      5-min Rain = 0
KWT1 200145Z 04006KT 05/M04 A3029 RMK A01 T00491037  RH  054%=      5-min Rain = 0
KWT1 200146Z 04006KT 05/M04 A303 RMK A01 T00491037  RH  054%=      5-min Rain = 0
KWT1 200147Z 04006KT 05/M04 A303 RMK A01 T00481038  RH  054%=      5-min Rain = 0
KWT1 200148Z 04005KT 05/M04 A303 RMK A01 T00471037  RH  054%=      5-min Rain = 0
KWT1 200149Z 04005KT 05/M04 A303 RMK A01 T00471038  RH  054%=      5-min Rain = 0
KWT1 200150Z 04005KT 05/M04 A303 RMK A01 T00461037  RH  055%=      5-min Rain = 0
KWT1 200151Z 04005KT 05/M04 A303 RMK A01 T00451038  RH  055%=      5-min Rain = 0
KWT1 200152Z 04005KT 05/M04 A303 RMK A01 T00451038  RH  055%=      5-min Rain = 0
KWT1 200153Z 04005KT 05/M04 A303 RMK A01 T00451037  RH  055%=      5-min Rain = 0
KWT1 200154Z 04005KT 04/M04 A303 RMK A01 T00441038  RH  055%=      5-min Rain = 0
KWT1 200155Z 04005KT 04/M04 A303 RMK A01 T00441038  RH  055%=      5-min Rain = 0
KWT1 200156Z 04005KT 04/M04 A303 RMK A01 T00441038  RH  055%=      5-min Rain = 0
KWT1 200157Z 04006KT 04/M04 A303 RMK A01 T00431038  RH  056%=      5-min Rain = 0
KWT1 200158Z 05007KT 04/M04 A303 RMK A01 T00431038  RH  056%=      5-min Rain = 0
KWT1 200159Z 04006KT 04/M04 A303 RMK A01 T00431038  RH  056%=      5-min Rain = 0
KWT1 200200Z 05007KT 04/M04 A303 RMK A01 T00421038  RH  056%=      5-min Rain = 0
KWT1 200201Z 05007KT 04/M04 A303 RMK A01 T00431038  RH  056%=      5-min Rain = 0
KWT1 200202Z 05007KT 04/M04 A303 RMK A01 T00431038  RH  056%=      5-min Rain = 0
KWT1 200203Z 05007KT 04/M04 A303 RMK A01 T00421038  RH  056%=      5-min Rain = 0
KWT1 200204Z 05007KT 04/M04 A303 RMK A01 T00431037  RH  056%=      5-min Rain = 0
KWT1 200205Z 05006KT 04/M04 A303 RMK A01 T00421038  RH  056%=      5-min Rain = 0
KWT1 200206Z 05006KT 04/M04 A303 RMK A01 T00421037  RH  056%=      5-min Rain = 0
KWT1 200207Z 05006KT 04/M04 A303 RMK A01 T00411037  RH  057%=      5-min Rain = 0
KWT1 200208Z 05006KT 04/M04 A303 RMK A01 T00411037  RH  057%=      5-min Rain = 0
KWT1 200209Z 05006KT 04/M04 A303 RMK A01 T00401037  RH  057%=      5-min Rain = 0
KWT1 200210Z 05006KT 04/M04 A303 RMK A01 T00391038  RH  057%=      5-min Rain = 0
KWT1 200211Z 05006KT 04/M04 A303 RMK A01 T00391038  RH  057%=      5-min Rain = 0
KWT1 200212Z 05006KT 04/M04 A303 RMK A01 T00391038  RH  057%=      5-min Rain = 0
KWT1 200213Z 05006KT 04/M04 A303 RMK A01 T00381038  RH  057%=      5-min Rain = 0
KWT1 200214Z 05006KT 04/M04 A303 RMK A01 T00381038  RH  057%=      5-min Rain = 0
KWT1 200215Z 05006KT 04/M04 A303 RMK A01 T00381038  RH  057%=      5-min Rain = 0
KWT1 200216Z 05006KT 04/M04 A303 RMK A01 T00381038  RH  057%=      5-min Rain = 0
KWT1 200217Z 05006KT 04/M04 A303 RMK A01 T00381038  RH  057%=      5-min Rain = 0
KWT1 200218Z 05006KT 04/M04 A303 RMK A01 T00381038  RH  057%=      5-min Rain = 0
KWT1 200219Z 05005KT 04/M04 A303 RMK A01 T00391038  RH  057%=      5-min Rain = 0
KWT1 200220Z 05005KT 04/M04 A303 RMK A01 T00381038  RH  057%=      5-min Rain = 0
KWT1 200221Z 05005KT 04/M04 A303 RMK A01 T00391038  RH  057%=      5-min Rain = 0
KWT1 200222Z 05005KT 04/M04 A303 RMK A01 T00391038  RH  057%=      5-min Rain = 0
KWT1 200223Z 05006KT 04/M04 A303 RMK A01 T00391038  RH  057%=      5-min Rain = 0
KWT1 200224Z 05005KT 04/M04 A303 RMK A01 T00391038  RH  057%=      5-min Rain = 0
KWT1 200225Z 05005KT 04/M04 A3029 RMK A01 T00391038  RH  057%=      5-min Rain = 0
KWT1 200226Z 04006KT 04/M04 A3029 RMK A01 T00381038  RH  058%=      5-min Rain = 0
KWT1 200227Z 04005KT 04/M04 A3029 RMK A01 T00381038  RH  058%=      5-min Rain = 0
KWT1 200228Z 05006KT 04/M04 A3029 RMK A01 T00371039  RH  058%=      5-min Rain = 0
KWT1 200229Z 05005KT 04/M04 A3029 RMK A01 T00361039  RH  058%=      5-min Rain = 0
KWT1 200230Z 05005KT 04/M04 A3029 RMK A01 T00351039  RH  058%=      5-min Rain = 0
KWT1 200231Z 05005KT 04/M04 A3029 RMK A01 T00351039  RH  058%=      5-min Rain = 0
KWT1 200232Z 05005KT 03/M04 A3029 RMK A01 T00341039  RH  059%=      5-min Rain = 0
KWT1 200233Z 06005KT 03/M04 A3029 RMK A01 T00341039  RH  059%=      5-min Rain = 0
KWT1 200234Z 06005KT 03/M04 A3029 RMK A01 T00341039  RH  059%=      5-min Rain = 0
KWT1 200235Z 06005KT 03/M04 A3029 RMK A01 T00341039  RH  059%=      5-min Rain = 0
KWT1 200236Z 06005KT 03/M04 A3028 RMK A01 T00341040  RH  058%=      5-min Rain = 0
KWT1 200237Z 06005KT 04/M04 A3028 RMK A01 T00351039  RH  058%=      5-min Rain = 0
KWT1 200238Z 06005KT 04/M04 A3028 RMK A01 T00351039  RH  058%=      5-min Rain = 0
KWT1 200239Z 06006KT 04/M04 A3028 RMK A01 T00361039  RH  058%=      5-min Rain = 0
KWT1 200240Z 06006KT 04/M04 A3028 RMK A01 T00361039  RH  058%=      5-min Rain = 0
KWT1 200241Z 06006KT 04/M04 A3028 RMK A01 T00351038  RH  059%=      5-min Rain = 0
KWT1 200242Z 06006KT 04/M04 A3028 RMK A01 T00351038  RH  059%=      5-min Rain = 0
KWT1 200243Z 06006KT 03/M04 A3028 RMK A01 T00341038  RH  059%=      5-min Rain = 0
KWT1 200244Z 06007KT 03/M04 A3028 RMK A01 T00331037  RH  060%=      5-min Rain = 0
KWT1 200245Z 06008KT 03/M04 A3028 RMK A01 T00331037  RH  060%=      5-min Rain = 0
KWT1 200246Z 05008KT 03/M04 A3028 RMK A01 T00331037  RH  060%=      5-min Rain = 0
KWT1 200247Z 05008KT 03/M04 A3028 RMK A01 T00341036  RH  060%=      5-min Rain = 0
KWT1 200248Z 05008KT 03/M04 A3028 RMK A01 T00341036  RH  060%=      5-min Rain = 0
KWT1 200249Z 05008KT 04/M04 A3028 RMK A01 T00351036  RH  060%=      5-min Rain = 0
KWT1 200250Z 05007KT 04/M04 A3028 RMK A01 T00351036  RH  060%=      5-min Rain = 0
KWT1 200251Z 05008KT 04/M04 A3028 RMK A01 T00351037  RH  060%=      5-min Rain = 0
KWT1 200252Z 05007KT 04/M04 A3028 RMK A01 T00351036  RH  060%=      5-min Rain = 0
KWT1 200253Z 05008KT 03/M04 A3028 RMK A01 T00341036  RH  060%=      5-min Rain = 0
KWT1 200254Z 04007KT 03/M04 A3028 RMK A01 T00341035  RH  060%=      5-min Rain = 0
KWT1 200255Z 04007KT 03/M04 A3029 RMK A01 T00341035  RH  061%=      5-min Rain = 0
KWT1 200256Z 04007KT 04/M04 A3029 RMK A01 T00351035  RH  060%=      5-min Rain = 0
KWT1 200257Z 05007KT 04/M04 A3029 RMK A01 T00351035  RH  060%=      5-min Rain = 0
KWT1 200258Z 05007KT 04/M04 A3029 RMK A01 T00351036  RH  060%=      5-min Rain = 0
KWT1 200259Z 05007KT 04/M04 A3029 RMK A01 T00351036  RH  060%=      5-min Rain = 0
KWT1 200300Z 05007KT 04/M04 A3029 RMK A01 T00351036  RH  060%=      5-min Rain = 0
KWT1 200301Z 05006KT 04/M04 A3029 RMK A01 T00351036  RH  060%=      5-min Rain = 0
KWT1 200302Z 05007KT 03/M04 A3029 RMK A01 T00341037  RH  060%=      5-min Rain = 0
KWT1 200303Z 05007KT 03/M04 A3029 RMK A01 T00341037  RH  060%=      5-min Rain = 0
KWT1 200304Z 05007KT 03/M04 A3029 RMK A01 T00341037  RH  060%=      5-min Rain = 0
KWT1 200305Z 05007KT 03/M04 A3029 RMK A01 T00341037  RH  060%=      5-min Rain = 0
KWT1 200306Z 05007KT 03/M04 A3029 RMK A01 T00341037  RH  060%=      5-min Rain = 0
KWT1 200307Z 05007KT 03/M04 A3029 RMK A01 T00341037  RH  060%=      5-min Rain = 0
KWT1 200308Z 05007KT 03/M04 A3029 RMK A01 T00341037  RH  060%=      5-min Rain = 0
KWT1 200309Z 05007KT 03/M04 A3029 RMK A01 T00341037  RH  060%=      5-min Rain = 0
KWT1 200310Z 05007KT 03/M04 A3029 RMK A01 T00331037  RH  060%=      5-min Rain = 0
KWT1 200311Z 05007KT 03/M04 A303 RMK A01 T00321037  RH  060%=      5-min Rain = 0
KWT1 200312Z 04006KT 03/M04 A303 RMK A01 T00321037  RH  060%=      5-min Rain = 0
KWT1 200313Z 04007KT 03/M04 A303 RMK A01 T00321037  RH  060%=      5-min Rain = 0
KWT1 200314Z 04007KT 03/M04 A303 RMK A01 T00311038  RH  060%=      5-min Rain = 0
KWT1 200315Z 04007KT 03/M04 A303 RMK A01 T00311038  RH  061%=      5-min Rain = 0
KWT1 200316Z 04006KT 03/M04 A303 RMK A01 T00311038  RH  061%=      5-min Rain = 0
KWT1 200317Z 04005KT 03/M04 A303 RMK A01 T00311038  RH  061%=      5-min Rain = 0
KWT1 200318Z 04004KT 03/M04 A303 RMK A01 T00311038  RH  060%=      5-min Rain = 0
KWT1 200319Z 04004KT 03/M04 A303 RMK A01 T00311038  RH  060%=      5-min Rain = 0
KWT1 200320Z 05004KT 03/M04 A3029 RMK A01 T00311039  RH  060%=      5-min Rain = 0
KWT1 200321Z 05003KT 03/M04 A3029 RMK A01 T00311039  RH  060%=      5-min Rain = 0
KWT1 200322Z 06003KT 03/M04 A3029 RMK A01 T00311039  RH  060%=      5-min Rain = 0
KWT1 200323Z 06003KT 03/M04 A303 RMK A01 T00311039  RH  060%=      5-min Rain = 0
KWT1 200324Z 06004KT 03/M04 A303 RMK A01 T00311039  RH  060%=      5-min Rain = 0
KWT1 200325Z 05004KT 03/M04 A303 RMK A01 T00311039  RH  060%=      5-min Rain = 0
KWT1 200326Z 05004KT 03/M04 A303 RMK A01 T00321039  RH  060%=      5-min Rain = 0
KWT1 200327Z 05005KT 03/M04 A3031 RMK A01 T00321039  RH  059%=      5-min Rain = 0
KWT1 200328Z 05005KT 03/M04 A3031 RMK A01 T00331039  RH  059%=      5-min Rain = 0
KWT1 200329Z 05005KT 03/M04 A3031 RMK A01 T00331039  RH  059%=      5-min Rain = 0
KWT1 200330Z 05005KT 03/M04 A3031 RMK A01 T00321039  RH  059%=      5-min Rain = 0
KWT1 200331Z 05005KT 03/M04 A3031 RMK A01 T00321039  RH  060%=      5-min Rain = 0
KWT1 200332Z 06005KT 03/M04 A3031 RMK A01 T00311039  RH  060%=      5-min Rain = 0
KWT1 200333Z 06005KT 03/M04 A3031 RMK A01 T00301039  RH  061%=      5-min Rain = 0
KWT1 200334Z 05005KT 03/M04 A3031 RMK A01 T00301038  RH  061%=      5-min Rain = 0
KWT1 200335Z 05005KT 03/M04 A3031 RMK A01 T00301038  RH  061%=      5-min Rain = 0
KWT1 200336Z 05005KT 03/M04 A3031 RMK A01 T00301038  RH  061%=      5-min Rain = 0
KWT1 200337Z 05005KT 03/M04 A3031 RMK A01 T00311037  RH  061%=      5-min Rain = 0
KWT1 200338Z 05004KT 03/M04 A3031 RMK A01 T00311037  RH  061%=      5-min Rain = 0
KWT1 200339Z 05005KT 03/M04 A3031 RMK A01 T00311037  RH  061%=      5-min Rain = 0
KWT1 200340Z 06005KT 03/M04 A3031 RMK A01 T00311037  RH  061%=      5-min Rain = 0
KWT1 200341Z 06005KT 03/M04 A3031 RMK A01 T00311037  RH  061%=      5-min Rain = 0
KWT1 200342Z 05005KT 03/M04 A3031 RMK A01 T00301037  RH  061%=      5-min Rain = 0
KWT1 200343Z 05005KT 03/M04 A3031 RMK A01 T00301037  RH  061%=      5-min Rain = 0
KWT1 200344Z 05005KT 03/M04 A3031 RMK A01 T00291037  RH  062%=      5-min Rain = 0
KWT1 200345Z 05006KT 03/M04 A3031 RMK A01 T00291037  RH  062%=      5-min Rain = 0
KWT1 200346Z 05006KT 03/M04 A3031 RMK A01 T00291037  RH  062%=      5-min Rain = 0
KWT1 200347Z 05006KT 03/M04 A3031 RMK A01 T00291037  RH  062%=      5-min Rain = 0
KWT1 200348Z 05005KT 03/M04 A3031 RMK A01 T00291037  RH  062%=      5-min Rain = 0
KWT1 200349Z 05005KT 03/M04 A3031 RMK A01 T00291037  RH  062%=      5-min Rain = 0
KWT1 200350Z 05006KT 03/M04 A3031 RMK A01 T00291037  RH  062%=      5-min Rain = 0
KWT1 200351Z 05005KT 03/M04 A3031 RMK A01 T00291037  RH  062%=      5-min Rain = 0
KWT1 200352Z 06005KT 03/M04 A3031 RMK A01 T00301037  RH  062%=      5-min Rain = 0
KWT1 200353Z 06006KT 03/M04 A3031 RMK A01 T00301037  RH  061%=      5-min Rain = 0
KWT1 200354Z 06005KT 03/M04 A3031 RMK A01 T00301037  RH  062%=      5-min Rain = 0
KWT1 200355Z 06005KT 03/M04 A3031 RMK A01 T00291037  RH  062%=      5-min Rain = 0
KWT1 200356Z 06005KT 03/M04 A3031 RMK A01 T00291036  RH  062%=      5-min Rain = 0
KWT1 200357Z 06005KT 03/M04 A3031 RMK A01 T00301036  RH  062%=      5-min Rain = 0
KWT1 200358Z 07005KT 03/M04 A3031 RMK A01 T00301036  RH  062%=      5-min Rain = 0
KWT1 200359Z 07004KT 03/M04 A3031 RMK A01 T00311036  RH  061%=      5-min Rain = 0
KWT1 200400Z 06005KT 03/M04 A3031 RMK A01 T00311036  RH  061%=      5-min Rain = 0
KWT1 200401Z 07004KT 03/M04 A3031 RMK A01 T00311037  RH  061%=      5-min Rain = 0
KWT1 200402Z 07004KT 03/M04 A3031 RMK A01 T00311037  RH  061%=      5-min Rain = 0
KWT1 200403Z 06004KT 03/M04 A3031 RMK A01 T00321037  RH  061%=      5-min Rain = 0
KWT1 200404Z 06004KT 03/M04 A3031 RMK A01 T00321037  RH  061%=      5-min Rain = 0
KWT1 200405Z 06004KT 03/M04 A3031 RMK A01 T00321037  RH  061%=      5-min Rain = 0
KWT1 200406Z 06004KT 03/M04 A3031 RMK A01 T00311038  RH  061%=      5-min Rain = 0
KWT1 200407Z 06004KT 03/M04 A303 RMK A01 T00311038  RH  061%=      5-min Rain = 0
KWT1 200408Z 06004KT 03/M04 A303 RMK A01 T00311038  RH  061%=      5-min Rain = 0
KWT1 200409Z 06005KT 03/M04 A303 RMK A01 T00301038  RH  061%=      5-min Rain = 0
KWT1 200410Z 05005KT 03/M04 A303 RMK A01 T00301038  RH  061%=      5-min Rain = 0
KWT1 200411Z 04005KT 03/M04 A3031 RMK A01 T00301037  RH  061%=      5-min Rain = 0
KWT1 200412Z 04005KT 03/M04 A3031 RMK A01 T00291037  RH  062%=      5-min Rain = 0
KWT1 200413Z 04005KT 03/M04 A3031 RMK A01 T00281036  RH  062%=      5-min Rain = 0
KWT1 200414Z 04005KT 03/M04 A3031 RMK A01 T00271037  RH  063%=      5-min Rain = 0
KWT1 200415Z 04005KT 03/M04 A3031 RMK A01 T00261038  RH  063%=      5-min Rain = 0
KWT1 200416Z 04006KT 03/M04 A3031 RMK A01 T00261038  RH  063%=      5-min Rain = 0
KWT1 200417Z 04005KT 03/M04 A3031 RMK A01 T00251039  RH  063%=      5-min Rain = 0
KWT1 200418Z 05006KT 02/M04 A3031 RMK A01 T00241039  RH  063%=      5-min Rain = 0
KWT1 200419Z 05006KT 02/M04 A3031 RMK A01 T00241038  RH  063%=      5-min Rain = 0
KWT1 200420Z 04005KT 02/M04 A3032 RMK A01 T00241038  RH  063%=      5-min Rain = 0
KWT1 200421Z 04005KT 02/M04 A3032 RMK A01 T00241039  RH  063%=      5-min Rain = 0
KWT1 200422Z 04005KT 02/M04 A3032 RMK A01 T00241038  RH  063%=      5-min Rain = 0
KWT1 200423Z 05005KT 02/M04 A3032 RMK A01 T00241038  RH  063%=      5-min Rain = 0
KWT1 200424Z 05005KT 02/M04 A3032 RMK A01 T00241038  RH  063%=      5-min Rain = 0
KWT1 200425Z 06005KT 02/M04 A3031 RMK A01 T00241038  RH  063%=      5-min Rain = 0
KWT1 200426Z 06006KT 02/M04 A3031 RMK A01 T00241038  RH  063%=      5-min Rain = 0
KWT1 200427Z 06006KT 02/M04 A3031 RMK A01 T00241038  RH  063%=      5-min Rain = 0
KWT1 200428Z 07006KT 02/M04 A3031 RMK A01 T00241038  RH  064%=      5-min Rain = 0
KWT1 200429Z 07005KT 02/M04 A3031 RMK A01 T00231038  RH  064%=      5-min Rain = 0
KWT1 200430Z 07005KT 02/M04 A303 RMK A01 T00221037  RH  065%=      5-min Rain = 0
KWT1 200431Z 07005KT 02/M04 A303 RMK A01 T00231037  RH  065%=      5-min Rain = 0
KWT1 200432Z 08005KT 02/M04 A303 RMK A01 T00231037  RH  065%=      5-min Rain = 0
KWT1 200433Z 08005KT 02/M04 A303 RMK A01 T00231036  RH  065%=      5-min Rain = 0
KWT1 200434Z 08005KT 02/M04 A303 RMK A01 T00231036  RH  065%=      5-min Rain = 0
KWT1 200435Z 08005KT 02/M04 A303 RMK A01 T00221037  RH  065%=      5-min Rain = 0
KWT1 200436Z 08005KT 02/M04 A303 RMK A01 T00211038  RH  065%=      5-min Rain = 0
KWT1 200437Z 08006KT 02/M04 A303 RMK A01 T00211037  RH  065%=      5-min Rain = 0
KWT1 200438Z 08006KT 02/M04 A3029 RMK A01 T00211037  RH  065%=      5-min Rain = 0
KWT1 200439Z 08006KT 02/M04 A3029 RMK A01 T00211038  RH  065%=      5-min Rain = 0
KWT1 200440Z 08006KT 02/M04 A3029 RMK A01 T00211038  RH  065%=      5-min Rain = 0
KWT1 200441Z 08006KT 02/M04 A3029 RMK A01 T00221038  RH  065%=      5-min Rain = 0
KWT1 200442Z 07005KT 02/M04 A303 RMK A01 T00221038  RH  064%=      5-min Rain = 0
KWT1 200443Z 07006KT 02/M04 A303 RMK A01 T00221038  RH  065%=      5-min Rain = 0
KWT1 200444Z 07006KT 02/M04 A303 RMK A01 T00221038  RH  065%=      5-min Rain = 0
KWT1 200445Z 07006KT 02/M04 A303 RMK A01 T00221038  RH  065%=      5-min Rain = 0
KWT1 200446Z 07005KT 02/M04 A303 RMK A01 T00231038  RH  064%=      5-min Rain = 0
KWT1 200447Z 07005KT 02/M04 A303 RMK A01 T00221038  RH  064%=      5-min Rain = 0
KWT1 200448Z 07005KT 02/M04 A303 RMK A01 T00221038  RH  064%=      5-min Rain = 0
KWT1 200449Z 07006KT 02/M04 A303 RMK A01 T00221038  RH  064%=      5-min Rain = 0
KWT1 200450Z 08006KT 02/M04 A303 RMK A01 T00211039  RH  064%=      5-min Rain = 0
KWT1 200451Z 08005KT 02/M04 A303 RMK A01 T00211039  RH  065%=      5-min Rain = 0
KWT1 200452Z 08006KT 02/M04 A303 RMK A01 T00211039  RH  065%=      5-min Rain = 0
KWT1 200453Z 08006KT 02/M04 A303 RMK A01 T00201039  RH  065%=      5-min Rain = 0
KWT1 200454Z 08006KT 02/M04 A303 RMK A01 T00201039  RH  065%=      5-min Rain = 0
KWT1 200455Z 08005KT 02/M04 A303 RMK A01 T00201039  RH  065%=      5-min Rain = 0
KWT1 200456Z 08006KT 02/M04 A303 RMK A01 T00191039  RH  066%=      5-min Rain = 0
KWT1 200457Z 07006KT 02/M04 A303 RMK A01 T00191038  RH  066%=      5-min Rain = 0
KWT1 200458Z 07006KT 02/M04 A303 RMK A01 T00191038  RH  066%=      5-min Rain = 0
KWT1 200459Z 06006KT 02/M04 A3031 RMK A01 T00201039  RH  065%=      5-min Rain = 0
KWT1 200500Z 06006KT 02/M04 A3031 RMK A01 T00201039  RH  065%=      5-min Rain = 0
KWT1 200501Z 07006KT 02/M04 A3031 RMK A01 T00201038  RH  065%=      5-min Rain = 0
KWT1 200502Z 07006KT 02/M04 A303 RMK A01 T00211039  RH  065%=      5-min Rain = 0
KWT1 200503Z 07006KT 02/M04 A303 RMK A01 T00201039  RH  065%=      5-min Rain = 0
KWT1 200504Z 07006KT 02/M04 A303 RMK A01 T00201039  RH  065%=      5-min Rain = 0
KWT1 200505Z 07006KT 02/M04 A3031 RMK A01 T00201039  RH  065%=      5-min Rain = 0
KWT1 200506Z 08006KT 02/M04 A3031 RMK A01 T00201039  RH  065%=      5-min Rain = 0
KWT1 200507Z 07007KT 02/M04 A3032 RMK A01 T00191039  RH  065%=      5-min Rain = 0
KWT1 200508Z 07006KT 02/M04 A3032 RMK A01 T00191039  RH  066%=      5-min Rain = 0
KWT1 200509Z 08006KT 02/M04 A3031 RMK A01 T00181039  RH  066%=      5-min Rain = 0
KWT1 200510Z 08006KT 02/M04 A3031 RMK A01 T00181039  RH  066%=      5-min Rain = 0
KWT1 200511Z 08005KT 02/M04 A3031 RMK A01 T00181039  RH  066%=      5-min Rain = 0
KWT1 200512Z 09007KT 02/M04 A3031 RMK A01 T00171039  RH  067%=      5-min Rain = 0
KWT1 200513Z 09008KT 02/M04 A3031 RMK A01 T00161039  RH  067%=      5-min Rain = 0
KWT1 200514Z 08007KT 02/M04 A3032 RMK A01 T00161039  RH  067%=      5-min Rain = 0
KWT1 200515Z 08007KT 02/M04 A3032 RMK A01 T00151040  RH  067%=      5-min Rain = 0
KWT1 200516Z 08008KT 01/M04 A3032 RMK A01 T00141040  RH  067%=      5-min Rain = 0
KWT1 200517Z 07008KT 01/M04 A3031 RMK A01 T00131042  RH  067%=      5-min Rain = 0
KWT1 200518Z 08008KT 01/M04 A3031 RMK A01 T00131044  RH  066%=      5-min Rain = 0
KWT1 200519Z 07008KT 01/M05 A3031 RMK A01 T00141046  RH  064%=      5-min Rain = 0
KWT1 200520Z 07009KT 02/M05 A3031 RMK A01 T00151048  RH  063%=      5-min Rain = 0
KWT1 200521Z 08008KT 02/M05 A3032 RMK A01 T00161049  RH  062%=      5-min Rain = 0
KWT1 200522Z 08008KT 02/M05 A3032 RMK A01 T00161049  RH  062%=      5-min Rain = 0
KWT1 200523Z 08008KT 02/M05 A3032 RMK A01 T00151050  RH  062%=      5-min Rain = 0
KWT1 200524Z 09007KT 02/M05 A3032 RMK A01 T00151050  RH  062%=      5-min Rain = 0
KWT1 200525Z 09007KT 02/M05 A3032 RMK A01 T00151050  RH  062%=      5-min Rain = 0
KWT1 200526Z 09006KT 01/M05 A3032 RMK A01 T00141050  RH  062%=      5-min Rain = 0
KWT1 200527Z 10006KT 01/M05 A3032 RMK A01 T00141050  RH  063%=      5-min Rain = 0
KWT1 200528Z 10006KT 01/M05 A3032 RMK A01 T00121051  RH  063%=      5-min Rain = 0
KWT1 200529Z 10006KT 01/M05 A3032 RMK A01 T00111051  RH  063%=      5-min Rain = 0
KWT1 200530Z 10005KT 01/M05 A3031 RMK A01 T00101051  RH  064%=      5-min Rain = 0
KWT1 200531Z 11006KT 01/M05 A3031 RMK A01 T00091051  RH  064%=      5-min Rain = 0
KWT1 200532Z 11007KT 01/M05 A3031 RMK A01 T00081051  RH  065%=      5-min Rain = 0
KWT1 200533Z 11007KT 01/M05 A3031 RMK A01 T00071051  RH  065%=      5-min Rain = 0
KWT1 200534Z 10006KT 01/M05 A3031 RMK A01 T00061052  RH  065%=      5-min Rain = 0
KWT1 200535Z 10007KT 01/M05 A3032 RMK A01 T00061052  RH  065%=      5-min Rain = 0
KWT1 200536Z 10006KT 01/M05 A3032 RMK A01 T00061052  RH  065%=      5-min Rain = 0
KWT1 200537Z 09006KT 01/M05 A3032 RMK A01 T00061052  RH  065%=      5-min Rain = 0
KWT1 200538Z 10007KT 01/M05 A3032 RMK A01 T00051052  RH  066%=      5-min Rain = 0
KWT1 200539Z 10007KT 00/M05 A3032 RMK A01 T00041052  RH  066%=      5-min Rain = 0
KWT1 200540Z 10007KT 00/M05 A3032 RMK A01 T00041051  RH  067%=      5-min Rain = 0
KWT1 200541Z 09007KT 00/M05 A3032 RMK A01 T00031051  RH  067%=      5-min Rain = 0
KWT1 200542Z 09005KT 00/M05 A3033 RMK A01 T00031051  RH  067%=      5-min Rain = 0
KWT1 200543Z 10006KT 00/M05 A3033 RMK A01 T00021051  RH  068%=      5-min Rain = 0
KWT1 200544Z 10005KT 00/M05 A3033 RMK A01 T00021051  RH  068%=      5-min Rain = 0
KWT1 200545Z 11005KT 00/M05 A3033 RMK A01 T00021051  RH  068%=      5-min Rain = 0
KWT1 200546Z 11006KT 00/M05 A3033 RMK A01 T00021051  RH  068%=      5-min Rain = 0
KWT1 200547Z 11005KT 00/M05 A3033 RMK A01 T00011051  RH  068%=      5-min Rain = 0
KWT1 200548Z 11005KT 00/M05 A3033 RMK A01 T00011051  RH  068%=      5-min Rain = 0
KWT1 200549Z 11005KT 00/M05 A3033 RMK A01 T00011051  RH  068%=      5-min Rain = 0
KWT1 200550Z 11005KT 00/M05 A3033 RMK A01 T00011051  RH  068%=      5-min Rain = 0
KWT1 200551Z 11005KT 00/05 A3033 RMK A01 T00-00-52  RH  068%=      5-min Rain = 0
KWT1 200552Z 11005KT 00/05 A3033 RMK A01 T00-00-51  RH  069%=      5-min Rain = 0
KWT1 200553Z 10006KT M00/M05 A3033 RMK A01 T10011051  RH  069%=      5-min Rain = 0
KWT1 200554Z 10006KT M00/M05 A3033 RMK A01 T10021051  RH  069%=      5-min Rain = 0
KWT1 200555Z 09006KT M00/M05 A3033 RMK A01 T10021052  RH  069%=      5-min Rain = 0
KWT1 200556Z 09006KT M00/M05 A3033 RMK A01 T10021052  RH  069%=      5-min Rain = 0
KWT1 200557Z 09006KT M00/M05 A3033 RMK A01 T10021052  RH  069%=      5-min Rain = 0
KWT1 200558Z 09006KT M00/M05 A3033 RMK A01 T10031052  RH  070%=      5-min Rain = 0
KWT1 200559Z 09005KT M00/M05 A3033 RMK A01 T10041052  RH  070%=      5-min Rain = 0

Page generated in 0.274 seconds.